Flight Track Log - Related Links

Times and Time Zones

All times are in EDT time to prevent confusion due to time zone crossing. See the DAL268 flight status page for this flight to view local times or setup timezone preferences in your user account.

Time Position Orientation Groundspeed Altitude Reporting Facility
EDT Latitude Longitude Course Direction KTS MPH feet Rate Location/Type
Sun 09:52:34 PM 40.6430 -73.7690 180° South 90 104  Level FlightAware ADS-B
Sun 09:52:54 PM 40.6330 -73.7770 211° Southwest 155 178 600 Level FlightAware ADS-B
Sun 09:53:14 PM 40.6180 -73.7880 209° Southwest 177 204 400 1,600 Climbing FlightAware ADS-B
Sun 09:53:39 PM 40.6010 -73.8010 210° Southwest 181 208 1,200 1,600 Climbing FlightAware ADS-B
Sun 09:53:59 PM 40.5850 -73.8110 205° Southwest 201 231 1,600 1,071 Climbing FlightAware ADS-B
Sun 09:54:07 PM 40.5770 -73.8130 191° South 213 245 1,700 833 Climbing FlightAware ADS-B
Sun 09:54:35 PM 40.5480 -73.8020 164° South 256 295 2,100 938 Climbing FlightAware ADS-B
Sun 09:54:39 PM 40.5440 -73.7980 143° Southeast 261 300 2,200 1,000 Climbing FlightAware ADS-B
Sun 09:54:47 PM 40.5380 -73.7880 128° Southeast 269 310 2,300 1,600 Climbing FlightAware ADS-B
Sun 09:54:54 PM 40.5320 -73.7770 126° Southeast 274 315 2,600 2,000 Climbing FlightAware ADS-B
Sun 09:55:14 PM 40.5200 -73.7470 118° Southeast 288 331 3,200 2,000 Climbing FlightAware ADS-B
Sun 09:55:30 PM 40.5100 -73.7230 119° Southeast 294 338 3,800 2,595 Climbing FlightAware ADS-B
Sun 09:55:51 PM 40.4980 -73.6910 116° Southeast 295 339 4,800 2,780 Climbing FlightAware ADS-B
Sun 09:56:11 PM 40.4860 -73.6590 116° Southeast 299 344 5,700 2,700 Climbing FlightAware ADS-B
Sun 09:56:31 PM 40.4730 -73.6240 116° Southeast 303 349 6,600 2,791 Climbing FlightAware ADS-B
Sun 09:56:54 PM 40.4580 -73.5840 116° Southeast 309 356 7,700 2,512 Climbing FlightAware ADS-B
Sun 09:57:14 PM 40.4460 -73.5500 115° Southeast 317 365 8,400 2,063 Climbing FlightAware ADS-B
Sun 09:57:26 PM 40.4380 -73.5290 117° Southeast 321 369 8,800 1,941 Climbing FlightAware ADS-B
Sun 09:57:48 PM 40.4230 -73.4930 119° Southeast 331 381 9,500 1,889 Climbing FlightAware ADS-B
Sun 09:58:20 PM 40.4000 -73.4330 117° Southeast 350 403 10,500 1,286 Climbing FlightAware ADS-B
Sun 09:58:58 PM 40.3700 -73.3540 116° Southeast 393 452 11,000 973 Climbing FlightAware ADS-B
Sun 09:59:34 PM 40.3400 -73.2760 117° Southeast 423 487 11,700 1,412 Climbing FlightAware ADS-B
Sun 09:59:49 PM 40.3237 -73.2403 121° Southeast 430 495 12,200 2,000 Climbing FlightAware ADS-B (KSNC)
Sun 10:00:31 PM 40.2850 -73.1440 118° Southeast 449 517 13,600 2,087 Climbing FlightAware ADS-B
Sun 10:00:58 PM 40.2770 -73.0680 98° East 461 531 14,600 2,118 Climbing FlightAware ADS-B
Sun 10:01:39 PM 40.2771 -72.9527 90° East 471 542 16,000 2,000 Climbing FlightAware ADS-B (KSNC)
Sun 10:02:10 PM 40.2773 -72.8635 90° East 479 551 17,000 1,875 Climbing FlightAware ADS-B (KSNC)
Sun 10:02:43 PM 40.2772 -72.7669 90° East 486 559 18,000 1,810 Climbing FlightAware ADS-B (KSNC)
Sun 10:03:13 PM 40.2770 -72.6781 90° East 494 568 18,900 1,652 Climbing FlightAware ADS-B (KSNC)
Sun 10:03:52 PM 40.2760 -72.5630 91° East 503 579 19,900 1,607 Climbing FlightAware ADS-B
Sun 10:04:09 PM 40.2762 -72.5267 90° East 506 582 20,400 1,541 Climbing FlightAware ADS-B (KSNC)
Sun 10:05:06 PM 40.2750 -72.3310 90° East 520 598 21,800 1,375 Climbing FlightAware ADS-B
Sun 10:05:45 PM 40.2740 -72.2140 91° East 528 608 22,600 1,360 Climbing FlightAware ADS-B
Sun 10:06:21 PM 40.2730 -72.0950 91° East 535 616 23,500 1,378 Climbing FlightAware ADS-B
Sun 10:06:59 PM 40.2720 -71.9710 91° East 543 625 24,300 1,216 Climbing FlightAware ADS-B
Sun 10:07:35 PM 40.2710 -71.8560 91° East 549 632 25,000 1,233 Climbing FlightAware ADS-B
Sun 10:08:12 PM 40.2690 -71.7250 91° East 556 640 25,800 767 Climbing FlightAware ADS-B
Sun 10:09:01 PM 40.2680 -71.5790 90° East 560 644 26,100 635 Climbing FlightAware ADS-B
Sun 10:09:37 PM 40.2660 -71.4570 91° East 566 651 26,700 500 Climbing FlightAware ADS-B
Sun 10:10:13 PM 40.2640 -71.3520 91° East 566 651 26,700  Level FlightAware ADS-B
Sun 10:10:49 PM 40.2630 -71.2470 91° East 566 651 26,700 1,826 Level FlightAware ADS-B
Sun 10:11:22 PM 40.2600 -71.1160 92° East 583 671 28,800 1,726 Climbing FlightAware ADS-B
Sun 10:12:02 PM 40.2590 -70.9960 91° East 583 671 28,800  Level FlightAware ADS-B
Sun 10:12:40 PM 40.2570 -70.8820 91° East 583 671 28,800  Level FlightAware ADS-B
Sun 10:13:16 PM 40.2560 -70.7740 91° East 583 671 28,800  Level FlightAware ADS-B
Sun 10:13:52 PM 40.2540 -70.6660 91° East 583 671 28,800  Level FlightAware ADS-B
Sun 10:14:38 PM 40.2520 -70.5270 91° East 583 671 28,800  Level FlightAware ADS-B
Sun 10:15:15 PM 40.2510 -70.4160 91° East 583 671 28,800 1,200 Level FlightAware ADS-B
Sun 10:16:28 PM 40.2333 -70.0075 91° East 568 654 31,000 992 Climbing New York Center
Sun 10:17:28 PM 40.2300 -69.8092 91° East 582 670 31,000  Level New York Center
Sun 10:18:28 PM 40.2217 -69.5972 93° East 588 677 31,000  Level New York Center
Sun 10:19:28 PM 40.2156 -69.3853 92° East 588 677 31,000  Level New York Center
Sun 10:20:28 PM 40.2086 -69.1681 92° East 588 677 31,000  Level New York Center
Sun 10:21:28 PM 40.2017 -68.9564 92° East 588 677 31,000  Level New York Center
Sun 10:22:28 PM 40.1939 -68.7392 93° East 588 677 31,000  Level New York Center
Sun 10:23:28 PM 40.1861 -68.5219 93° East 588 677 31,000  Level New York Center
Sun 10:24:28 PM 40.1756 -68.3106 94° East 593 682 31,000  Level New York Center
Sun 10:25:28 PM 40.1689 -68.0908 92° East 588 677 31,000  Level New York Center
Sun 10:26:28 PM 40.1600 -67.8792 93° East 588 677 31,000  Level New York Center
Sun 10:28:00 PM 40.1454 -67.5665 93° East  Level FlightAware Approximate
Sun 10:33:28 PM 40.1167 -67.0000 78° East 607 699 31,000  Level New York Oceanic (ODAPS)
Sun 10:35:00 PM 40.3373 -66.1875 70° East  Level FlightAware Approximate
Sun 10:36:00 PM 40.3898 -65.9945 70° East  Level FlightAware Approximate
Sun 10:37:00 PM 40.4420 -65.8012 70° East  Level FlightAware Approximate
Sun 10:38:00 PM 40.4939 -65.6075 71° East  Level FlightAware Approximate
Sun 10:39:00 PM 40.4076 -65.0505 80° East 607 699 31,000  Level FlightAware Transoceanic
Sun 10:40:00 PM 40.4380 -64.8329 80° East 607 699 31,000  Level FlightAware Transoceanic
Sun 10:41:00 PM 40.4678 -64.6151 80° East 607 699 31,000  Level FlightAware Transoceanic
Sun 10:42:00 PM 40.4973 -64.3970 80° East 607 699 31,000  Level FlightAware Transoceanic
Sun 10:43:00 PM 40.5264 -64.1788 80° East 607 699 31,000  Level FlightAware Transoceanic
Sun 10:43:43 PM 40.5333 -64.1667 80° East 620 713 31,000  Level New York Oceanic (ODAPS)
Sun 10:44:00 PM 40.5551 -63.9605 80° East 607 699 31,000  Level FlightAware Transoceanic
Sun 10:45:00 PM 40.5833 -63.7419 80° East 607 699 31,000  Level FlightAware Transoceanic
Sun 10:46:00 PM 40.6112 -63.5231 81° East 607 699 31,000  Level FlightAware Transoceanic
Sun 10:47:00 PM 40.6386 -63.3042 81° East 607 699 31,000  Level FlightAware Transoceanic
Sun 10:48:00 PM 40.6656 -63.0851 81° East 607 699 31,000  Level FlightAware Transoceanic
Sun 10:49:00 PM 40.6922 -62.8658 81° East 607 699 31,000  Level FlightAware Transoceanic
Sun 10:50:00 PM 40.7227 -62.6385 81° East 620 713 31,000  Level FlightAware Transoceanic
Sun 10:51:00 PM 40.7481 -62.4195 81° East 620 713 31,000  Level FlightAware Transoceanic
Sun 10:52:00 PM 40.7731 -62.2003 82° East 620 713 31,000  Level FlightAware Transoceanic
Sun 10:53:00 PM 40.7976 -61.9810 82° East 620 713 31,000  Level FlightAware Transoceanic
Sun 10:54:00 PM 40.8218 -61.7615 82° East 620 713 31,000  Level FlightAware Transoceanic
Sun 10:55:00 PM 40.8455 -61.5418 82° East 620 713 31,000  Level FlightAware Transoceanic
Sun 10:56:00 PM 40.8689 -61.3220 82° East 620 713 31,000  Level FlightAware Transoceanic
Sun 10:57:00 PM 40.8918 -61.1020 82° East 620 713 31,000  Level FlightAware Transoceanic
Sun 10:58:00 PM 40.9142 -60.8819 82° East 620 713 31,000  Level FlightAware Transoceanic
Sun 10:59:00 PM 40.9363 -60.6617 83° East 620 713 31,000  Level FlightAware Transoceanic
Sun 11:00:00 PM 40.9580 -60.4412 83° East 620 713 31,000  Level FlightAware Transoceanic
Sun 11:01:00 PM 40.9792 -60.2207 83° East 620 713 31,000  Level FlightAware Transoceanic
Sun 11:02:00 PM 41.0000 -60.0000 87° East 620 713 31,000  Level FlightAware Transoceanic
Sun 11:03:00 PM 41.0094 -59.7782 87° East 620 713 31,000  Level FlightAware Transoceanic
Sun 11:03:13 PM 41.0000 -60.0000 87° East 602 693 31,000  Level New York Oceanic (ODAPS)
Sun 11:04:00 PM 41.0184 -59.5564 87° East 620 713 31,000  Level FlightAware Transoceanic
Sun 11:04:02 PM 41.0167 -59.6833 87° East 595 685 31,000  Level New York Oceanic (ODAPS)
Sun 11:05:00 PM 41.0269 -59.3345 87° East 620 713 31,000  Level FlightAware Transoceanic
Sun 11:06:00 PM 41.0350 -59.1126 87° East 620 713 31,000  Level FlightAware Transoceanic
Sun 11:07:00 PM 41.0427 -58.8906 87° East 620 713 31,000  Level FlightAware Transoceanic
Sun 11:08:00 PM 41.0500 -58.6685 88° East 620 713 31,000  Level FlightAware Transoceanic
Sun 11:09:00 PM 41.0568 -58.4464 88° East 602 693 31,000  Level FlightAware Transoceanic
Sun 11:10:00 PM 41.0622 -58.3643 88° East 595 685 31,000  Level FlightAware Transoceanic
Sun 11:11:00 PM 41.0683 -58.1443 88° East 595 685 31,000  Level FlightAware Transoceanic
Sun 11:12:00 PM 41.0740 -57.9243 88° East 595 685 31,000  Level FlightAware Transoceanic
Sun 11:13:00 PM 41.0793 -57.7042 88° East 595 685 31,000  Level FlightAware Transoceanic
Sun 11:14:00 PM 41.0841 -57.4841 88° East 595 685 31,000 1,176 Level FlightAware Transoceanic
Sun 11:14:42 PM 41.0833 -57.2833 88° East 592 681 33,000  Climbing New York Oceanic (ODAPS)
Sun 11:15:00 PM 41.0886 -57.2639 89° East 595 685 31,000 -1,538 Descending FlightAware Transoceanic
Sun 11:16:00 PM 41.0926 -57.0437 89° East 595 685 31,000  Level FlightAware Transoceanic
Sun 11:17:00 PM 41.0962 -56.8235 89° East 595 685 31,000  Level FlightAware Transoceanic
Sun 11:18:00 PM 41.0994 -56.6033 89° East 595 685 31,000  Level FlightAware Transoceanic
Sun 11:19:00 PM 41.1021 -56.3831 89° East 595 685 31,000 1,000 Level FlightAware Transoceanic
Sun 11:20:00 PM 41.1020 -55.9975 89° East 592 681 33,000 1,000 Climbing FlightAware Transoceanic
Sun 11:21:00 PM 41.1037 -55.7831 89° East 592 681 33,000  Level FlightAware Transoceanic
Sun 11:22:00 PM 41.1050 -55.5687 90° East 592 681 33,000  Level FlightAware Transoceanic
Sun 11:23:00 PM 41.1059 -55.3544 90° East 592 681 33,000  Level FlightAware Transoceanic
Sun 11:24:00 PM 41.1065 -55.1400 90° East 592 681 33,000  Level FlightAware Transoceanic
Sun 11:24:08 PM 41.1000 -55.1833 90° East 597 687 33,000  Level New York Oceanic (ODAPS)
Sun 11:25:00 PM 41.1066 -54.9256 90° East 592 681 33,000  Level FlightAware Transoceanic
Sun 11:26:00 PM 41.1063 -54.7112 90° East 592 681 33,000  Level FlightAware Transoceanic
Sun 11:27:00 PM 41.1057 -54.4968 90° East 592 681 33,000  Level FlightAware Transoceanic
Sun 11:28:00 PM 41.1046 -54.2824 90° East 592 681 33,000  Level FlightAware Transoceanic
Sun 11:29:00 PM 41.1031 -54.0681 91° East 592 681 33,000  Level FlightAware Transoceanic
Sun 11:30:00 PM 41.0968 -53.8863 91° East 597 687 33,000  Level FlightAware Transoceanic
Sun 11:31:00 PM 41.0948 -53.6702 91° East 597 687 33,000  Level FlightAware Transoceanic
Sun 11:32:00 PM 41.0925 -53.4540 91° East 597 687 33,000  Level FlightAware Transoceanic
Sun 11:33:00 PM 41.0897 -53.2379 91° East 597 687 33,000  Level FlightAware Transoceanic
Sun 11:34:00 PM 41.0866 -53.0218 91° East 597 687 33,000  Level FlightAware Transoceanic
Sun 11:35:00 PM 41.0830 -52.8057 91° East 597 687 33,000  Level FlightAware Transoceanic
Sun 11:36:00 PM 41.0790 -52.5897 91° East 597 687 33,000  Level FlightAware Transoceanic
Sun 11:37:00 PM 41.0747 -52.3737 92° East 597 687 33,000  Level FlightAware Transoceanic
Sun 11:38:00 PM 41.0699 -52.1577 92° East 597 687 33,000  Level FlightAware Transoceanic
Sun 11:39:00 PM 41.0647 -51.9417 92° East 597 687 33,000  Level FlightAware Transoceanic
Sun 11:40:00 PM 41.0591 -51.7258 92° East 597 687 33,000  Level FlightAware Transoceanic
Sun 11:41:00 PM 41.0532 -51.5099 92° East 597 687 33,000  Level FlightAware Transoceanic
Sun 11:42:00 PM 41.0468 -51.2941 92° East 597 687 33,000  Level FlightAware Transoceanic
Sun 11:43:00 PM 41.0400 -51.0783 92° East 597 687 33,000  Level FlightAware Transoceanic
Sun 11:44:00 PM 41.0328 -50.8625 93° East 597 687 33,000  Level FlightAware Transoceanic
Sun 11:44:26 PM 41.0333 -50.8333 93° East 587 676 33,000  Level New York Oceanic (ODAPS)
Sun 11:45:00 PM 41.0252 -50.6468 93° East 597 687 33,000  Level FlightAware Transoceanic
Sun 11:46:00 PM 41.0172 -50.4311 93° East 597 687 33,000  Level FlightAware Transoceanic
Sun 11:47:00 PM 41.0088 -50.2155 93° East 597 687 33,000  Level FlightAware Transoceanic
Sun 11:48:00 PM 41.0000 -50.0000 87° East 597 687 33,000  Level FlightAware Transoceanic
Sun 11:49:00 PM 41.0094 -49.7782 87° East 597 687 33,000  Level FlightAware Transoceanic
Sun 11:49:37 PM 41.0000 -50.0000 87° East 596 686 33,000  Level New York Oceanic (ODAPS)
Sun 11:50:00 PM 41.0180 -49.5661 87° East 587 676 33,000  Level FlightAware Transoceanic
Sun 11:51:00 PM 41.0264 -49.3490 87° East 587 676 33,000  Level FlightAware Transoceanic
Sun 11:52:00 PM 41.0343 -49.1319 87° East 587 676 33,000  Level FlightAware Transoceanic
Sun 11:53:00 PM 41.0419 -48.9147 87° East 587 676 33,000  Level FlightAware Transoceanic
Sun 11:54:00 PM 41.0490 -48.6975 88° East 587 676 33,000  Level FlightAware Transoceanic
Sun 11:55:00 PM 41.0558 -48.4802 88° East 596 686 33,000  Level FlightAware Transoceanic
Sun 11:56:00 PM 41.0621 -48.2629 88° East 596 686 33,000  Level FlightAware Transoceanic
Sun 11:57:00 PM 41.0681 -48.0456 88° East 596 686 33,000  Level FlightAware Transoceanic
Sun 11:58:00 PM 41.0736 -47.8282 88° East 596 686 33,000  Level FlightAware Transoceanic
Sun 11:59:00 PM 41.0787 -47.6108 88° East 596 686 33,000  Level FlightAware Transoceanic
Mon 12:00:00 AM 41.0834 -47.3933 88° East 596 686 33,000  Level FlightAware Transoceanic
Mon 12:01:00 AM 41.0877 -47.1758 89° East 596 686 33,000  Level FlightAware Transoceanic
Mon 12:02:00 AM 41.0916 -46.9583 89° East 596 686 33,000  Level FlightAware Transoceanic
Mon 12:03:00 AM 41.0951 -46.7408 89° East 596 686 33,000  Level FlightAware Transoceanic
Mon 12:04:00 AM 41.0982 -46.5233 89° East 596 686 33,000  Level FlightAware Transoceanic
Mon 12:04:51 AM 41.1000 -46.4833 89° East 593 682 33,000  Level New York Oceanic (ODAPS)
Mon 12:05:00 AM 41.1008 -46.3057 89° East 596 686 33,000  Level FlightAware Transoceanic
Mon 12:06:00 AM 41.1031 -46.0881 89° East 596 686 33,000  Level FlightAware Transoceanic
Mon 12:07:00 AM 41.1049 -45.8705 89° East 596 686 33,000  Level FlightAware Transoceanic
Mon 12:08:00 AM 41.1063 -45.6529 90° East 596 686 33,000  Level FlightAware Transoceanic
Mon 12:09:00 AM 41.1074 -45.4353 90° East 596 686 33,000  Level FlightAware Transoceanic
Mon 12:10:00 AM 41.1080 -45.2176 90° East 596 686 33,000  Level FlightAware Transoceanic
Mon 12:11:00 AM 41.1092 -44.9694 90° East 593 682 33,000  Level FlightAware Transoceanic
Mon 12:12:00 AM 41.1089 -44.7531 90° East 593 682 33,000  Level FlightAware Transoceanic
Mon 12:13:00 AM 41.1082 -44.5368 90° East 593 682 33,000  Level FlightAware Transoceanic
Mon 12:14:00 AM 41.1071 -44.3205 90° East 593 682 33,000  Level FlightAware Transoceanic
Mon 12:15:00 AM 41.1056 -44.1042 91° East 593 682 33,000  Level FlightAware Transoceanic
Mon 12:16:00 AM 41.1036 -43.8879 91° East 593 682 33,000  Level FlightAware Transoceanic
Mon 12:17:00 AM 41.1013 -43.6717 91° East 593 682 33,000  Level FlightAware Transoceanic
Mon 12:18:00 AM 41.0986 -43.4554 91° East 593 682 33,000  Level FlightAware Transoceanic
Mon 12:19:00 AM 41.0955 -43.2392 91° East 593 682 33,000  Level FlightAware Transoceanic
Mon 12:20:00 AM 41.0919 -43.0230 91° East 593 682 33,000  Level FlightAware Transoceanic
Mon 12:21:00 AM 41.0880 -42.8068 91° East 593 682 33,000  Level FlightAware Transoceanic
Mon 12:22:00 AM 41.0836 -42.5907 92° East 593 682 33,000  Level FlightAware Transoceanic
Mon 12:23:00 AM 41.0789 -42.3746 92° East 593 682 33,000  Level FlightAware Transoceanic
Mon 12:24:00 AM 41.0737 -42.1585 92° East 593 682 33,000  Level FlightAware Transoceanic
Mon 12:25:00 AM 41.0681 -41.9424 92° East 593 682 33,000  Level FlightAware Transoceanic
Mon 12:25:05 AM 41.0667 -42.0000 92° East 605 696 33,000  Level New York Oceanic (ODAPS)
Mon 12:26:00 AM 41.0622 -41.7264 92° East 593 682 33,000  Level FlightAware Transoceanic
Mon 12:27:00 AM 41.0558 -41.5104 92° East 593 682 33,000  Level FlightAware Transoceanic
Mon 12:28:00 AM 41.0491 -41.2945 92° East 593 682 33,000  Level FlightAware Transoceanic
Mon 12:29:00 AM 41.0419 -41.0786 93° East 593 682 33,000  Level FlightAware Transoceanic
Mon 12:30:00 AM 41.0343 -40.8628 93° East 593 682 33,000  Level FlightAware Transoceanic
Mon 12:31:00 AM 41.0261 -40.6662 93° East 605 696 33,000  Level FlightAware Transoceanic
Mon 12:32:00 AM 41.0178 -40.4441 93° East 605 696 33,000  Level FlightAware Transoceanic
Mon 12:33:00 AM 41.0091 -40.2220 93° East 605 696 33,000  Level FlightAware Transoceanic
Mon 12:34:00 AM 41.0000 -40.0000 79° East 605 696 33,000  Level FlightAware Transoceanic
Mon 12:35:00 AM 41.0309 -39.7863 79° East 605 696 33,000  Level FlightAware Transoceanic
Mon 12:36:00 AM 41.0613 -39.5724 79° East 605 696 33,000  Level FlightAware Transoceanic
Mon 12:37:00 AM 41.0914 -39.3583 80° East 605 696 33,000  Level FlightAware Transoceanic
Mon 12:38:00 AM 41.1211 -39.1440 80° East 605 696 33,000  Level FlightAware Transoceanic
Mon 12:39:00 AM 41.1503 -38.9296 80° East 605 696 33,000  Level FlightAware Transoceanic
Mon 12:40:00 AM 41.1792 -38.7149 80° East 605 696 33,000  Level FlightAware Transoceanic
Mon 12:41:00 AM 41.2077 -38.5000 80° East 605 696 33,000  Level FlightAware Transoceanic
Mon 12:42:00 AM 41.2357 -38.2850 80° East 605 696 33,000  Level FlightAware Transoceanic
Mon 12:43:00 AM 41.2634 -38.0698 80° East 605 696 33,000  Level FlightAware Transoceanic
Mon 12:44:00 AM 41.2907 -37.8544 81° East 605 696 33,000  Level FlightAware Transoceanic
Mon 12:45:00 AM 41.3176 -37.6388 81° East 605 696 33,000  Level FlightAware Transoceanic
Mon 12:46:00 AM 41.3440 -37.4230 81° East 605 696 33,000  Level FlightAware Transoceanic
Mon 12:47:00 AM 41.3701 -37.2071 81° East 605 696 33,000  Level FlightAware Transoceanic
Mon 12:48:00 AM 41.3958 -36.9910 81° East 605 696 33,000  Level FlightAware Transoceanic
Mon 12:49:00 AM 41.4210 -36.7747 81° East 605 696 33,000  Level FlightAware Transoceanic
Mon 12:50:00 AM 41.4459 -36.5583 81° East 605 696 33,000  Level FlightAware Transoceanic
Mon 12:51:00 AM 41.4703 -36.3417 82° East 605 696 33,000  Level FlightAware Transoceanic
Mon 12:52:00 AM 41.4944 -36.1249 82° East 605 696 33,000  Level FlightAware Transoceanic
Mon 12:53:00 AM 41.5180 -35.9080 82° East 605 696 33,000  Level FlightAware Transoceanic
Mon 12:54:00 AM 41.5412 -35.6909 82° East 605 696 33,000  Level FlightAware Transoceanic
Mon 12:55:00 AM 41.5640 -35.4736 82° East 605 696 33,000  Level FlightAware Transoceanic
Mon 12:56:00 AM 41.5864 -35.2562 82° East 605 696 33,000  Level FlightAware Transoceanic
Mon 12:57:00 AM 41.6084 -35.0387 82° East 605 696 33,000  Level FlightAware Transoceanic
Mon 12:58:00 AM 41.6300 -34.8210 83° East 605 696 33,000  Level FlightAware Transoceanic
Mon 12:59:00 AM 41.6512 -34.6032 83° East 605 696 33,000  Level FlightAware Transoceanic
Mon 01:00:00 AM 41.6720 -34.3852 83° East 605 696 33,000  Level FlightAware Transoceanic
Mon 01:01:00 AM 41.6923 -34.1671 83° East 605 696 33,000  Level FlightAware Transoceanic
Mon 01:02:00 AM 41.7122 -33.9488 83° East 605 696 33,000  Level FlightAware Transoceanic
Mon 01:03:00 AM 41.7318 -33.7304 83° East 605 696 33,000  Level FlightAware Transoceanic
Mon 01:04:00 AM 41.7509 -33.5119 83° East 605 696 33,000  Level FlightAware Transoceanic
Mon 01:05:00 AM 41.7696 -33.2933 84° East 605 696 33,000  Level FlightAware Transoceanic
Mon 01:06:00 AM 41.7879 -33.0745 84° East 605 696 33,000  Level FlightAware Transoceanic
Mon 01:07:00 AM 41.8057 -32.8556 84° East 605 696 33,000  Level FlightAware Transoceanic
Mon 01:08:00 AM 41.8232 -32.6366 84° East 605 696 33,000  Level FlightAware Transoceanic
Mon 01:09:00 AM 41.8402 -32.4175 84° East 605 696 33,000  Level FlightAware Transoceanic
Mon 01:10:00 AM 41.8568 -32.1982 84° East 605 696 33,000  Level FlightAware Transoceanic
Mon 01:11:00 AM 41.8730 -31.9789 84° East 605 696 33,000 -268 Level FlightAware Transoceanic
Mon 01:11:52 AM 41.8890 -31.7590 85° East 590 679 32,500  Descending FlightAware ADS-B
Mon 01:12:00 AM 41.8888 -31.7594 85° East 605 696 33,000 -1,029 Climbing FlightAware Transoceanic
Mon 01:12:27 AM 41.8980 -31.6350 84° East 591 680 31,900 -1,543 Descending FlightAware ADS-B
Mon 01:13:10 AM 41.9090 -31.4750 85° East 587 676 31,200 -701 Descending FlightAware ADS-B
Mon 01:13:44 AM 41.9170 -31.3480 85° East 581 669 31,000 -167 Descending FlightAware ADS-B
Mon 01:14:22 AM 41.9260 -31.2160 85° East 582 670 31,000  Level FlightAware ADS-B
Mon 01:15:03 AM 41.9360 -31.0930 84° East 582 670 31,000  Level FlightAware ADS-B
Mon 01:15:35 AM 41.9440 -30.9490 86° East 585 673 31,000  Level FlightAware ADS-B
Mon 01:16:13 AM 41.9520 -30.8150 85° East 588 677 31,000  Level FlightAware ADS-B
Mon 01:16:47 AM 41.9590 -30.7070 85° East 588 677 31,000  Level FlightAware ADS-B
Mon 01:17:23 AM 41.9660 -30.5950 85° East 588 677 31,000  Level FlightAware ADS-B
Mon 01:17:58 AM 41.9750 -30.4360 86° East 589 678 31,000  Level FlightAware ADS-B
Mon 01:18:33 AM 41.9830 -30.3050 85° East 590 679 31,000  Level FlightAware ADS-B
Mon 01:19:03 AM 41.9890 -30.1910 86° East 590 679 31,000  Level FlightAware ADS-B
Mon 01:19:47 AM 41.9980 -30.0500 85° East 590 679 31,000  Level FlightAware ADS-B
Mon 01:20:25 AM 42.0050 -29.8920 87° East 591 680 31,000  Level FlightAware ADS-B
Mon 01:20:58 AM 42.0100 -29.7740 87° East 591 680 31,000  Level FlightAware ADS-B
Mon 01:21:33 AM 42.0150 -29.6430 87° East 589 678 31,000  Level FlightAware ADS-B
Mon 01:22:10 AM 42.0200 -29.5080 87° East 587 676 31,000  Level FlightAware ADS-B
Mon 01:22:52 AM 42.0270 -29.3730 86° East 586 674 31,000  Level FlightAware ADS-B
Mon 01:23:29 AM 42.0330 -29.2590 86° East 586 674 31,000  Level FlightAware ADS-B
Mon 01:24:05 AM 42.0360 -29.0920 89° East 587 676 31,000  Level FlightAware ADS-B
Mon 01:24:54 AM 42.0420 -28.9310 87° East 587 676 31,000  Level FlightAware ADS-B
Mon 01:25:33 AM 42.0470 -28.7720 88° East 587 676 31,000  Level FlightAware ADS-B
Mon 01:26:02 AM 42.0510 -28.6660 87° East 588 677 31,000  Level FlightAware ADS-B
Mon 01:26:49 AM 42.0560 -28.4940 88° East 589 678 31,000  Level FlightAware ADS-B
Mon 01:27:24 AM 42.0600 -28.3620 88° East 591 680 31,000  Level FlightAware ADS-B
Mon 01:28:00 AM 42.0640 -28.2370 87° East 591 680 31,000  Level FlightAware ADS-B
Mon 01:28:34 AM 42.0670 -28.1300 88° East 591 680 31,000  Level FlightAware ADS-B
Mon 01:29:10 AM 42.0720 -28.0180 87° East 591 680 31,000  Level FlightAware ADS-B
Mon 01:29:44 AM 42.0740 -27.8480 89° East 592 681 31,000  Level FlightAware ADS-B
Mon 01:30:26 AM 42.0770 -27.7170 88° East 592 681 31,000  Level FlightAware ADS-B
Mon 01:31:02 AM 42.0800 -27.6040 88° East 592 681 31,000  Level FlightAware ADS-B
Mon 01:31:39 AM 42.0830 -27.4880 88° East 592 681 31,000  Level FlightAware ADS-B
Mon 01:32:10 AM 42.0860 -27.3220 89° East 584 672 31,000  Level FlightAware ADS-B
Mon 01:32:52 AM 42.0890 -27.1830 88° East 584 672 31,000  Level FlightAware ADS-B
Mon 01:33:29 AM 42.0920 -27.0690 88° East 584 672 31,000  Level FlightAware ADS-B
Mon 01:34:06 AM 42.0950 -26.9540 88° East 584 672 31,000  Level FlightAware ADS-B
Mon 01:34:54 AM 42.0970 -26.7410 89° East 576 663 31,000  Level FlightAware ADS-B
Mon 01:35:25 AM 42.0970 -26.6630 90° East 574 661 31,000  Level FlightAware ADS-B
Mon 01:35:59 AM 42.0990 -26.5450 89° East 574 661 31,000  Level FlightAware ADS-B
Mon 01:36:35 AM 42.1000 -26.4360 89° East 574 661 31,000  Level FlightAware ADS-B
Mon 01:37:11 AM 42.1020 -26.3260 89° East 574 661 31,000  Level FlightAware ADS-B
Mon 01:37:47 AM 42.1030 -26.2170 89° East 574 661 31,000  Level FlightAware ADS-B
Mon 01:38:23 AM 42.1040 -26.1070 89° East 574 661 31,000  Level FlightAware ADS-B
Mon 01:38:59 AM 42.1060 -25.9980 89° East 574 661 31,000  Level FlightAware ADS-B
Mon 01:39:35 AM 42.1070 -25.8880 89° East 574 661 31,000  Level FlightAware ADS-B
Mon 01:40:38 AM 42.1080 -25.5470 90° East 563 648 31,000  Level FlightAware ADS-B
Mon 01:41:16 AM 42.1090 -25.4100 89° East 563 648 31,000  Level FlightAware ADS-B
Mon 01:41:54 AM 42.1090 -25.2810 90° East 562 647 31,000  Level FlightAware ADS-B
Mon 01:42:26 AM 42.1090 -25.1730 90° East 561 646 31,000  Level FlightAware ADS-B
Mon 01:42:58 AM 42.1090 -25.0690 90° East 561 646 31,000  Level FlightAware ADS-B
Mon 01:43:37 AM 42.1090 -24.9530 90° East 561 646 31,000  Level FlightAware ADS-B
Mon 01:44:17 AM 42.1090 -24.8000 90° East 560 644 31,000  Level FlightAware ADS-B
Mon 01:45:01 AM 42.1090 -24.6750 90° East 560 644 31,000  Level FlightAware ADS-B
Mon 01:45:37 AM 42.1090 -24.5690 90° East 560 644 31,000  Level FlightAware ADS-B
Mon 01:46:10 AM 42.1070 -24.3820 91° East 560 644 31,000  Level FlightAware ADS-B
Mon 01:47:05 AM 42.1070 -24.2430 90° East 560 644 31,000  Level FlightAware ADS-B
Mon 01:47:55 AM 42.1050 -24.0630 91° East 559 643 31,000  Level FlightAware ADS-B
Mon 01:48:30 AM 42.1040 -23.9100 90° East 558 642 31,000  Level FlightAware ADS-B
Mon 01:49:14 AM 42.1040 -23.7840 90° East 558 642 31,000  Level FlightAware ADS-B
Mon 01:49:50 AM 42.1040 -23.6780 90° East 558 642 31,000  Level FlightAware ADS-B
Mon 01:50:27 AM 42.1040 -23.5680 90° East 558 642 31,000  Level FlightAware ADS-B
Mon 01:51:03 AM 42.1040 -23.4620 90° East 558 642 31,000 2,314 Level FlightAware ADS-B
Mon 01:51:37 AM 42.0960 -23.2520 93° East 567 652 33,700 2,250 Climbing FlightAware ADS-B
Mon 01:52:15 AM 42.0940 -23.1380 91° East 567 652 33,700  Level FlightAware ADS-B
Mon 01:52:51 AM 42.0930 -23.0300 91° East 567 652 33,700 265 Level FlightAware ADS-B
Mon 01:53:23 AM 42.0900 -22.9060 92° East 568 654 34,000 265 Climbing FlightAware ADS-B
Mon 01:53:59 AM 42.0890 -22.7970 91° East 568 654 34,000  Level FlightAware ADS-B
Mon 01:54:36 AM 42.0870 -22.6860 91° East 568 654 34,000  Level FlightAware ADS-B
Mon 01:55:13 AM 42.0860 -22.5750 91° East 568 654 34,000  Level FlightAware ADS-B
Mon 01:55:49 AM 42.0850 -22.4660 91° East 568 654 34,000  Level FlightAware ADS-B
Mon 01:56:25 AM 42.0830 -22.3580 91° East 568 654 34,000  Level FlightAware ADS-B
Mon 01:57:01 AM 42.0820 -22.2500 91° East 568 654 34,000  Level FlightAware ADS-B
Mon 01:57:37 AM 42.0800 -22.1410 91° East 568 654 34,000  Level FlightAware ADS-B
Mon 01:58:13 AM 42.0790 -22.0330 91° East 568 654 34,000  Level FlightAware ADS-B
Mon 01:58:49 AM 42.0770 -21.9250 91° East 568 654 34,000  Level FlightAware ADS-B
Mon 01:59:26 AM 42.0760 -21.8130 91° East 568 654 34,000  Level FlightAware ADS-B
Mon 02:00:03 AM 42.0750 -21.7020 91° East 568 654 34,000  Level FlightAware ADS-B
Mon 02:00:40 AM 42.0730 -21.5910 91° East 568 654 34,000  Level FlightAware ADS-B
Mon 02:01:16 AM 42.0720 -21.4820 91° East 568 654 34,000  Level FlightAware ADS-B
Mon 02:01:53 AM 42.0700 -21.3710 91° East 568 654 34,000  Level FlightAware ADS-B
Mon 02:02:30 AM 42.0690 -21.2600 91° East 568 654 34,000 70 Level FlightAware ADS-B
Mon 02:05:00 AM 42.1107 -20.7302 84° East  Level Estimated
Mon 02:06:00 AM 42.1267 -20.5181 84° East  Level Estimated
Mon 02:07:00 AM 42.1423 -20.3059 84° East  Level Estimated
Mon 02:08:00 AM 42.1575 -20.0936 84° East  Level Estimated
Mon 02:09:00 AM 42.1722 -19.8842 85° East  Level Estimated
Mon 02:10:00 AM 42.1864 -19.6748 85° East  Level Estimated
Mon 02:11:00 AM 42.2002 -19.4652 85° East  Level Estimated
Mon 02:12:00 AM 42.2137 -19.2556 85° East  Level Estimated
Mon 02:13:00 AM 42.2268 -19.0458 85° East  Level Estimated
Mon 02:14:00 AM 42.2395 -18.8360 85° East  Level Estimated
Mon 02:15:00 AM 42.2519 -18.6261 85° East  Level Estimated
Mon 02:16:00 AM 42.2638 -18.4161 86° East  Level Estimated
Mon 02:17:00 AM 42.2753 -18.2060 86° East  Level Estimated
Mon 02:18:00 AM 42.2865 -17.9959 86° East  Level Estimated
Mon 02:19:00 AM 42.2973 -17.7857 86° East  Level Estimated
Mon 02:20:00 AM 42.3077 -17.5754 86° East  Level Estimated
Mon 02:21:00 AM 42.3177 -17.3650 86° East  Level Estimated
Mon 02:22:00 AM 42.3274 -17.1546 86° East  Level Estimated
Mon 02:23:00 AM 42.3367 -16.9441 87° East  Level Estimated
Mon 02:24:00 AM 42.3455 -16.7335 87° East  Level Estimated
Mon 02:25:00 AM 42.3540 -16.5229 87° East  Level Estimated
Mon 02:26:00 AM 42.3621 -16.3123 87° East  Level Estimated
Mon 02:27:00 AM 42.3698 -16.1016 87° East  Level Estimated
Mon 02:28:00 AM 42.3771 -15.8908 87° East  Level Estimated
Mon 02:29:00 AM 42.3841 -15.6800 87° East  Level Estimated
Mon 02:30:00 AM 42.3906 -15.4691 88° East  Level Estimated
Mon 02:31:00 AM 42.3968 -15.2582 88° East  Level Estimated
Mon 02:32:00 AM 42.4026 -15.0473 88° East  Level Estimated
Mon 02:33:00 AM 42.4080 -14.8363 88° East  Level Estimated
Mon 02:34:00 AM 42.4130 -14.6253 88° East  Level Estimated
Mon 02:35:00 AM 42.4176 -14.4143 88° East  Level Estimated
Mon 02:36:00 AM 42.4218 -14.2032 88° East  Level Estimated
Mon 02:37:00 AM 42.4257 -13.9921 89° East  Level Estimated
Mon 02:38:00 AM 42.4292 -13.7809 89° East  Level Estimated
Mon 02:39:00 AM 42.4322 -13.5698 89° East  Level Estimated
Mon 02:40:00 AM 42.4349 -13.3586 89° East  Level Estimated
Mon 02:41:00 AM 42.4372 -13.1474 89° East  Level Estimated
Mon 02:42:00 AM 42.4391 -12.9362 89° East  Level Estimated
Mon 02:43:00 AM 42.4406 -12.7250 89° East  Level Estimated
Mon 02:44:00 AM 42.4418 -12.5138 90° East  Level Estimated
Mon 02:44:32 AM 42.2030 -12.5070 90° East 556 640 37,000  Level FlightAware ADS-B
Mon 02:45:11 AM 42.2250 -12.3960 75° East 556 640 37,000  Level FlightAware ADS-B
Mon 02:45:51 AM 42.2530 -12.2510 75° East 557 641 37,000  Level FlightAware ADS-B
Mon 02:46:27 AM 42.2740 -12.1480 75° East 557 641 37,000  Level FlightAware ADS-B
Mon 02:47:02 AM 42.3040 -11.9830 76° East 561 646 37,000  Level FlightAware ADS-B
Mon 02:47:32 AM 42.3210 -11.8950 75° East 560 644 37,000  Level FlightAware ADS-B
Mon 02:48:07 AM 42.3460 -11.7630 76° East 560 644 37,000  Level FlightAware ADS-B
Mon 02:48:42 AM 42.3670 -11.6480 76° East 560 644 37,000  Level FlightAware ADS-B
Mon 02:49:22 AM 42.3930 -11.5090 76° East 559 643 37,000  Level FlightAware ADS-B
Mon 02:50:15 AM 42.4240 -11.3430 76° East 559 643 37,000  Level FlightAware ADS-B
Mon 02:50:48 AM 42.4450 -11.2280 76° East 557 641 37,000  Level FlightAware ADS-B
Mon 02:51:24 AM 42.4650 -11.1170 76° East 555 639 37,000  Level FlightAware ADS-B
Mon 02:51:56 AM 42.4860 -11.0030 76° East 569 655 37,000  Level FlightAware ADS-B
Mon 02:53:55 AM 42.5580 -10.6070 91° East 545 627 37,000  Level FlightAware ADS-B
Mon 02:54:00 AM 42.4810 -10.5662 91° East  Level Estimated
Mon 02:54:31 AM 42.5810 -10.4750 77° East 543 625 37,000  Level FlightAware ADS-B
Mon 02:55:00 AM 42.5970 -10.3850 76° East 544 626 37,000  Level FlightAware ADS-B
Mon 02:55:39 AM 42.6210 -10.2500 76° East 543 625 37,000  Level FlightAware ADS-B
Mon 02:56:14 AM 42.6420 -10.1330 76° East 544 626 37,000  Level FlightAware ADS-B
Mon 02:56:50 AM 42.6630 -10.0110 77° East 544 626 37,000  Level FlightAware ADS-B
Mon 02:57:23 AM 42.6820 -9.9040 76° East 545 627 37,000  Level FlightAware ADS-B
Mon 02:57:58 AM 42.7020 -9.7840 77° East 544 626 37,000  Level FlightAware ADS-B
Mon 02:58:33 AM 42.5812 -10.4748 257° West 547 629 37,000  Level FlightAware ADS-B (LECO / LCG)
Mon 02:59:10 AM 42.7430 -9.5470 76° East 546 628 37,000  Level FlightAware ADS-B
Mon 02:59:35 AM 42.7574 -9.4598 77° East 547 629 37,000 100 Level FlightAware ADS-B (LECO / LCG)
Mon 03:00:10 AM 42.7773 -9.3426 77° East 546 628 37,100 212 Climbing FlightAware ADS-B (LECO / LCG)
Mon 03:01:00 AM 42.8040 -9.1826 77° East 544 626 37,300 300 Climbing FlightAware ADS-B (LECO / LCG)
Mon 03:01:30 AM 42.8220 -9.0790 77° East 549 632 37,500 300 Climbing FlightAware ADS-B
Mon 03:01:40 AM 42.8273 -9.0416 79° East 550 633 37,500 293 Level FlightAware ADS-B (LECO / LCG)
Mon 03:02:11 AM 42.8445 -8.9366 77° East 553 636 37,700 295 Climbing FlightAware ADS-B (LECO / LCG)
Mon 03:02:41 AM 42.8613 -8.8345 77° East 554 638 37,800 300 Climbing FlightAware ADS-B (LECO / LCG)
Mon 03:03:11 AM 42.8773 -8.7360 77° East 553 636 38,000 200 Climbing FlightAware ADS-B (LECO / LCG)
Mon 03:03:41 AM 42.8943 -8.6306 78° East 554 638 38,000  Level FlightAware ADS-B (LECO / LCG)
Mon 03:04:21 AM 42.9152 -8.4979 78° East 551 634 38,000  Level FlightAware ADS-B (LECO / LCG)
Mon 03:04:51 AM 42.9226 -8.3907 85° East 546 628 38,000  Level FlightAware ADS-B (LECO / LCG)
Mon 03:05:30 AM 42.9170 -8.2569 93° East 547 629 38,000  Level FlightAware ADS-B (LECO / LCG)
Mon 03:06:00 AM 42.9107 -8.1539 95° East 547 629 38,000  Level FlightAware ADS-B (LECO / LCG)
Mon 03:06:32 AM 42.9035 -8.0443 95° East 543 625 38,000  Level FlightAware ADS-B (LECO / LCG)
Mon 03:07:04 AM 42.8967 -7.9400 95° East 532 612 38,000  Level FlightAware ADS-B (LECO / LCG)
Mon 03:07:43 AM 42.8878 -7.8072 95° East 528 608 38,000  Level FlightAware ADS-B (LECO / LCG)
Mon 03:08:14 AM 42.8811 -7.7079 95° East 527 606 38,000  Level FlightAware ADS-B (LECO / LCG)
Mon 03:08:44 AM 42.8742 -7.6054 95° East 527 606 38,000  Level FlightAware ADS-B (LECO / LCG)
Mon 03:09:15 AM 42.8674 -7.5063 95° East 527 606 38,000  Level FlightAware ADS-B (LECO / LCG)
Mon 03:09:45 AM 42.8604 -7.4043 95° East 526 605 38,000  Level FlightAware ADS-B (LECO / LCG)
Mon 03:10:25 AM 42.8512 -7.2726 95° East 525 604 38,000  Level FlightAware ADS-B (LECO / LCG)
Mon 03:10:55 AM 42.8441 -7.1736 96° East 528 608 38,000  Level FlightAware ADS-B (LECO / LCG)
Mon 03:11:34 AM 42.8347 -7.0451 96° East 527 606 38,000  Level FlightAware ADS-B (LECO / LCG)
Mon 03:12:05 AM 42.8272 -6.9430 96° East 526 605 38,000  Level FlightAware ADS-B (LECO / LCG)
Mon 03:12:35 AM 42.8202 -6.8481 96° East 525 604 38,000  Level FlightAware ADS-B (LECO / LCG)
Mon 03:13:05 AM 42.8125 -6.7464 96° East 524 603 38,000  Level FlightAware ADS-B (LECO / LCG)
Mon 03:13:44 AM 42.8028 -6.6193 96° East 520 598 38,000  Level FlightAware ADS-B (LECO / LCG)
Mon 03:14:15 AM 42.7953 -6.5220 96° East 518 596 38,000  Level FlightAware ADS-B (LECO / LCG)
Mon 03:14:45 AM 42.7876 -6.4219 96° East 518 596 38,000  Level FlightAware ADS-B (LECO / LCG)
Mon 03:15:34 AM 42.7750 -6.2635 96° East 518 596 38,000  Level FlightAware ADS-B (LECO / LCG)
Mon 03:16:20 AM 42.7640 -6.1270 96° East 519 597 38,000  Level FlightAware ADS-B
Mon 03:16:50 AM 42.7560 -6.0270 96° East 520 598 38,000  Level FlightAware ADS-B
Mon 03:17:25 AM 42.7460 -5.9070 96° East 521 600 38,000  Level FlightAware ADS-B
Mon 03:18:05 AM 42.7360 -5.7800 96° East 522 601 38,000  Level FlightAware ADS-B
Mon 03:18:35 AM 42.7270 -5.6820 97° East 520 598 38,000  Level FlightAware ADS-B
Mon 03:19:10 AM 42.7170 -5.5650 97° East 522 601 38,000  Level FlightAware ADS-B
Mon 03:19:50 AM 42.7070 -5.4420 96° East 522 601 38,000  Level FlightAware ADS-B
Mon 03:20:20 AM 42.6970 -5.3380 97° East 521 600 38,000  Level FlightAware ADS-B
Mon 03:21:00 AM 42.6860 -5.2090 97° East 521 600 38,000  Level FlightAware ADS-B
Mon 03:21:30 AM 42.6780 -5.1180 97° East 521 600 38,000  Level FlightAware ADS-B
Mon 03:22:10 AM 42.6660 -4.9910 97° East 521 600 38,000  Level FlightAware ADS-B
Mon 03:22:50 AM 42.6530 -4.8480 97° East 523 602 38,000  Level FlightAware ADS-B
Mon 03:23:23 AM 42.6430 -4.7410 97° East 524 603 38,000  Level FlightAware ADS-B
Mon 03:24:00 AM 42.6320 -4.6210 97° East 524 603 38,000  Level FlightAware ADS-B
Mon 03:24:37 AM 42.6200 -4.5000 98° East 524 603 38,000  Level FlightAware ADS-B
Mon 03:25:07 AM 42.6110 -4.4020 97° East 524 603 38,000  Level FlightAware ADS-B
Mon 03:25:45 AM 42.5990 -4.2810 98° East 525 604 38,000  Level FlightAware ADS-B
Mon 03:26:21 AM 42.5880 -4.1640 97° East 525 604 38,000  Level FlightAware ADS-B
Mon 03:26:57 AM 42.5760 -4.0430 98° East 525 604 38,000  Level FlightAware ADS-B
Mon 03:27:31 AM 42.5650 -3.9360 98° East 525 604 38,000  Level FlightAware ADS-B
Mon 03:28:07 AM 42.5530 -3.8180 98° East 526 605 38,000  Level FlightAware ADS-B
Mon 03:28:37 AM 42.5430 -3.7170 98° East 528 608 38,000  Level FlightAware ADS-B
Mon 03:29:14 AM 42.5300 -3.5990 98° East 528 608 38,000  Level FlightAware ADS-B
Mon 03:29:51 AM 42.5180 -3.4750 97° East 527 606 38,000  Level FlightAware ADS-B
Mon 03:30:26 AM 42.5060 -3.3640 98° East 526 605 38,000  Level FlightAware ADS-B
Mon 03:31:00 AM 42.4940 -3.2500 98° East 525 604 38,000  Level FlightAware ADS-B
Mon 03:31:35 AM 42.4820 -3.1390 98° East 525 604 38,000  Level FlightAware ADS-B
Mon 03:32:12 AM 42.4690 -3.0190 98° East 526 605 38,000  Level FlightAware ADS-B
Mon 03:32:46 AM 42.4550 -2.9060 99° East 525 604 38,000  Level FlightAware ADS-B
Mon 03:33:19 AM 42.4370 -2.8040 103° East 522 601 38,000  Level FlightAware ADS-B
Mon 03:33:56 AM 42.4140 -2.6880 105° East 519 597 38,000  Level FlightAware ADS-B
Mon 03:34:31 AM 42.3910 -2.5790 106° East 516 594 38,000  Level FlightAware ADS-B
Mon 03:35:07 AM 42.3680 -2.4640 105° East 515 593 38,000  Level FlightAware ADS-B
Mon 03:35:40 AM 42.3460 -2.3650 107° East 513 590 38,000  Level FlightAware ADS-B
Mon 03:36:16 AM 42.3240 -2.2540 105° East 511 588 38,000  Level FlightAware ADS-B
Mon 03:36:51 AM 42.3010 -2.1470 106° East 508 585 38,000  Level FlightAware ADS-B
Mon 03:37:24 AM 42.2800 -2.0500 106° East 507 583 38,000  Level FlightAware ADS-B
Mon 03:38:19 AM 42.2480 -1.8990 106° East 506 582 38,000  Level FlightAware ADS-B
Mon 03:38:57 AM 42.2200 -1.7680 106° East 504 580 38,000  Level FlightAware ADS-B
Mon 03:39:34 AM 42.1950 -1.6540 106° East 502 578 38,000  Level FlightAware ADS-B
Mon 03:40:08 AM 42.1720 -1.5490 106° East 504 580 38,000  Level FlightAware ADS-B
Mon 03:40:43 AM 42.1510 -1.4520 106° East 504 580 38,000  Level FlightAware ADS-B
Mon 03:41:15 AM 42.1280 -1.3470 106° East 505 581 38,000  Level FlightAware ADS-B
Mon 03:41:50 AM 42.1060 -1.2470 106° East 505 581 38,000  Level FlightAware ADS-B
Mon 03:42:29 AM 42.0800 -1.1270 106° East 505 581 38,000  Level FlightAware ADS-B
Mon 03:43:04 AM 42.0560 -1.0180 106° East 507 583 38,000  Level FlightAware ADS-B
Mon 03:43:37 AM 42.0330 -0.9190 107° East 508 585 38,000  Level FlightAware ADS-B
Mon 03:44:12 AM 42.0100 -0.8160 107° East 509 586 38,000  Level FlightAware ADS-B
Mon 03:44:44 AM 41.9880 -0.7160 106° East 509 586 38,000  Level FlightAware ADS-B
Mon 03:45:19 AM 41.9640 -0.6130 107° East 508 585 38,000  Level FlightAware ADS-B
Mon 03:45:58 AM 41.9370 -0.4930 107° East 507 583 38,000  Level FlightAware ADS-B
Mon 03:46:31 AM 41.9140 -0.3940 107° East 506 582 38,000  Level FlightAware ADS-B
Mon 03:47:09 AM 41.8880 -0.2800 107° East 505 581 38,000  Level FlightAware ADS-B
Mon 03:47:42 AM 41.8650 -0.1820 107° East 504 580 38,000  Level FlightAware ADS-B
Mon 03:48:19 AM 41.8400 -0.0720 107° East 502 578 38,000  Level FlightAware ADS-B
Mon 03:48:54 AM 41.8160 0.0290 108° East 501 577 38,000  Level FlightAware ADS-B
Mon 03:49:26 AM 41.7940 0.1240 107° East 500 575 38,000  Level FlightAware ADS-B
Mon 03:50:03 AM 41.7680 0.2360 107° East 499 574 38,000  Level FlightAware ADS-B
Mon 03:50:40 AM 41.7430 0.3420 108° East 495 570 38,000  Level FlightAware ADS-B
Mon 03:50:54 AM 41.7324 0.3854 108° East 495 570 38,000  Level FlightAware ADS-B (YBCS / CNS)
Mon 03:51:35 AM 41.7055 0.4958 108° East 492 566 38,000  Level FlightAware ADS-B (YBCS / CNS)
Mon 03:52:05 AM 41.6832 0.5912 107° East 492 566 38,000  Level FlightAware ADS-B (YBCS / CNS)
Mon 03:52:36 AM 41.6616 0.6809 108° East 492 566 38,000  Level FlightAware ADS-B (YBCS / CNS)
Mon 03:53:15 AM 41.6325 0.7927 109° East 491 565 38,000  Level FlightAware ADS-B (YBCS / CNS)
Mon 03:53:46 AM 41.6094 0.8812 109° East 491 565 38,000  Level FlightAware ADS-B (YBCS / CNS)
Mon 03:54:25 AM 41.5800 0.9925 109° East 492 566 38,000  Level FlightAware ADS-B (YBCS / CNS)
Mon 03:54:56 AM 41.5567 1.0812 109° East 492 566 38,000  Level FlightAware ADS-B (YBCS / CNS)
Mon 03:55:35 AM 41.5280 1.1931 109° East 492 566 38,000  Level FlightAware ADS-B (YBCS / CNS)
Mon 03:56:06 AM 41.5078 1.2831 107° East 492 566 38,000  Level FlightAware ADS-B (YBCS / CNS)
Mon 03:56:45 AM 41.4822 1.3967 107° East 495 570 38,000  Level FlightAware ADS-B (YBCS / CNS)
Mon 03:57:16 AM 41.4615 1.4868 107° East 496 571 38,000  Level FlightAware ADS-B (YBCS / CNS)
Mon 03:57:46 AM 41.4411 1.5745 107° East 497 572 38,000  Level FlightAware ADS-B (YBCS / CNS)
Mon 03:58:16 AM 41.4210 1.6593 108° East 498 573 38,000  Level FlightAware ADS-B (YBCS / CNS)
Mon 03:58:46 AM 41.3990 1.7497 108° East 500 575 38,000  Level FlightAware ADS-B (YBCS / CNS)
Mon 03:59:16 AM 41.3767 1.8342 109° East 502 578 38,000  Level FlightAware ADS-B (YBCS / CNS)
Mon 03:59:46 AM 41.3540 1.9244 109° East 502 578 38,000  Level FlightAware ADS-B (YBCS / CNS)
Mon 04:00:25 AM 41.3245 2.0382 109° East 500 575 38,000  Level FlightAware ADS-B (YBCS / CNS)
Mon 04:00:56 AM 41.3038 2.1290 107° East 497 572 38,000  Level FlightAware ADS-B (YBCS / CNS)
Mon 04:01:45 AM 41.2790 2.2710 103° East 492 566 38,000  Level FlightAware ADS-B
Mon 04:02:17 AM 41.2640 2.3650 102° East 490 564 38,000  Level FlightAware ADS-B
Mon 04:02:54 AM 41.2470 2.4740 102° East 489 563 38,000  Level FlightAware ADS-B
Mon 04:03:30 AM 41.2300 2.5740 103° East 487 560 38,000  Level FlightAware ADS-B
Mon 04:04:02 AM 41.2140 2.6720 102° East 485 558 38,000  Level FlightAware ADS-B
Mon 04:04:38 AM 41.1960 2.7770 103° East 483 556 38,000  Level FlightAware ADS-B
Mon 04:05:14 AM 41.1780 2.8810 103° East 482 555 38,000  Level FlightAware ADS-B
Mon 04:05:46 AM 41.1620 2.9730 103° East 481 554 38,000  Level FlightAware ADS-B
Mon 04:06:20 AM 41.1450 3.0730 103° East 481 554 38,000  Level FlightAware ADS-B
Mon 04:06:58 AM 41.1280 3.1710 103° East 481 554 38,000  Level FlightAware ADS-B
Mon 04:07:32 AM 41.1090 3.2770 103° East 483 556 38,000  Level FlightAware ADS-B
Mon 04:08:07 AM 41.0910 3.3780 103° East 484 557 38,000  Level FlightAware ADS-B
Mon 04:08:42 AM 41.0740 3.4800 102° East 486 559 38,000  Level FlightAware ADS-B
Mon 04:09:32 AM 41.0480 3.6220 104° East 488 562 38,000  Level FlightAware ADS-B
Mon 04:10:03 AM 41.0330 3.7090 103° East 489 563 38,000  Level FlightAware ADS-B
Mon 04:10:42 AM 41.0120 3.8250 103° East 491 565 38,000  Level FlightAware ADS-B
Mon 04:11:27 AM 40.9920 3.9400 103° East 491 565 38,000  Level FlightAware ADS-B
Mon 04:12:01 AM 40.9700 4.0590 104° East 491 565 38,000  Level FlightAware ADS-B
Mon 04:12:33 AM 40.9530 4.1490 104° East 491 565 38,000  Level FlightAware ADS-B
Mon 04:13:12 AM 40.9320 4.2610 104° East 491 565 38,000  Level FlightAware ADS-B
Mon 04:13:43 AM 40.9150 4.3570 103° East 492 566 38,000  Level FlightAware ADS-B
Mon 04:14:17 AM 40.8960 4.4560 104° East 493 567 38,000  Level FlightAware ADS-B
Mon 04:15:07 AM 40.8700 4.5990 103° East 491 565 38,000  Level FlightAware ADS-B
Mon 04:15:38 AM 40.8560 4.6840 102° East 490 564 38,000  Level FlightAware ADS-B
Mon 04:16:21 AM 40.8420 4.8200 98° East 491 565 38,000  Level FlightAware ADS-B
Mon 04:17:06 AM 40.8320 4.9430 96° East 491 565 38,000  Level FlightAware ADS-B
Mon 04:17:43 AM 40.8200 5.0640 97° East 491 565 38,000  Level FlightAware ADS-B
Mon 04:18:16 AM 40.8110 5.1620 97° East 491 565 38,000  Level FlightAware ADS-B
Mon 04:18:52 AM 40.8000 5.2690 98° East 491 565 38,000  Level FlightAware ADS-B
Mon 04:19:25 AM 40.7910 5.3670 97° East 493 567 38,000  Level FlightAware ADS-B
Mon 04:20:20 AM 40.7760 5.5210 97° East 495 570 38,000  Level FlightAware ADS-B
Mon 04:20:51 AM 40.7650 5.6270 98° East 496 571 38,000  Level FlightAware ADS-B
Mon 04:21:46 AM 40.7490 5.7890 97° East 497 572 38,000  Level FlightAware ADS-B
Mon 04:22:27 AM 40.7360 5.9100 98° East 498 573 38,000  Level FlightAware ADS-B
Mon 04:22:57 AM 40.7270 6.0060 97° East 498 573 38,000  Level FlightAware ADS-B
Mon 04:23:34 AM 40.7150 6.1140 98° East 498 573 38,000  Level FlightAware ADS-B
Mon 04:24:04 AM 40.7060 6.2040 97° East 497 572 38,000  Level FlightAware ADS-B
Mon 04:24:42 AM 40.6940 6.3150 98° East 495 570 38,000  Level FlightAware ADS-B
Mon 04:25:17 AM 40.6830 6.4190 98° East 493 567 38,000  Level FlightAware ADS-B
Mon 04:25:52 AM 40.6720 6.5260 98° East 494 568 38,000  Level FlightAware ADS-B
Mon 04:26:27 AM 40.6600 6.6300 99° East 494 568 38,000  Level FlightAware ADS-B
Mon 04:27:07 AM 40.6470 6.7490 98° East 494 568 38,000  Level FlightAware ADS-B
Mon 04:27:37 AM 40.6370 6.8380 98° East 493 567 38,000  Level FlightAware ADS-B
Mon 04:28:15 AM 40.6260 6.9420 98° East 493 567 38,000  Level FlightAware ADS-B
Mon 04:28:47 AM 40.6140 7.0460 99° East 493 567 38,000  Level FlightAware ADS-B
Mon 04:29:22 AM 40.6020 7.1490 99° East 492 566 38,000  Level FlightAware ADS-B
Mon 04:29:57 AM 40.5910 7.2530 98° East 491 565 38,000  Level FlightAware ADS-B
Mon 04:30:37 AM 40.5770 7.3710 99° East 491 565 38,000  Level FlightAware ADS-B
Mon 04:31:07 AM 40.5690 7.4570 97° East 493 567 38,000  Level FlightAware ADS-B
Mon 04:31:43 AM 40.5710 7.5650 89° East 497 572 38,000  Level FlightAware ADS-B
Mon 04:32:22 AM 40.5810 7.6830 84° East 497 572 38,000  Level FlightAware ADS-B
Mon 04:32:52 AM 40.5890 7.7730 83° East 497 572 38,000  Level FlightAware ADS-B
Mon 04:33:27 AM 40.5980 7.8780 84° East 498 573 38,000  Level FlightAware ADS-B
Mon 04:33:57 AM 40.5900 7.9700 97° East 493 567 38,000  Level FlightAware ADS-B
Mon 04:34:32 AM 40.5770 8.0710 100° East 492 566 38,000  Level FlightAware ADS-B
Mon 04:35:07 AM 40.5660 8.1780 98° East 494 568 38,000  Level FlightAware ADS-B
Mon 04:35:42 AM 40.5540 8.2820 99° East 493 567 38,000  Level FlightAware ADS-B
Mon 04:36:17 AM 40.5400 8.3820 100° East 494 568 38,000  Level FlightAware ADS-B
Mon 04:36:52 AM 40.5260 8.4890 100° East 494 568 38,000  Level FlightAware ADS-B
Mon 04:37:27 AM 40.5120 8.5910 100° East 492 566 38,000  Level FlightAware ADS-B
Mon 04:38:02 AM 40.4980 8.6950 100° East 491 565 38,000  Level FlightAware ADS-B
Mon 04:38:37 AM 40.4840 8.7980 100° East 491 565 38,000  Level FlightAware ADS-B
Mon 04:39:12 AM 40.4690 8.8980 101° East 492 566 38,000  Level FlightAware ADS-B
Mon 04:39:47 AM 40.4540 9.0040 101° East 492 566 38,000  Level FlightAware ADS-B
Mon 04:40:22 AM 40.4400 9.1070 100° East 494 568 38,000  Level FlightAware ADS-B
Mon 04:40:57 AM 40.4250 9.2110 101° East 495 570 38,000  Level FlightAware ADS-B
Mon 04:41:32 AM 40.4100 9.3140 101° East 496 571 38,000  Level FlightAware ADS-B
Mon 04:42:07 AM 40.3940 9.4210 101° East 497 572 38,000  Level FlightAware ADS-B
Mon 04:42:42 AM 40.3800 9.5220 100° East 498 573 38,000  Level FlightAware ADS-B
Mon 04:43:17 AM 40.3640 9.6260 101° East 498 573 38,000  Level FlightAware ADS-B
Mon 04:43:52 AM 40.3480 9.7330 101° East 500 575 38,000  Level FlightAware ADS-B
Mon 04:44:27 AM 40.3330 9.8340 101° East 500 575 38,000  Level FlightAware ADS-B
Mon 04:45:02 AM 40.3180 9.9380 101° East 499 574 38,000  Level FlightAware ADS-B
Mon 04:45:37 AM 40.3020 10.0440 101° East 498 573 38,000  Level FlightAware ADS-B
Mon 04:46:12 AM 40.2860 10.1470 101° East 498 573 38,000  Level FlightAware ADS-B
Mon 04:46:48 AM 40.2700 10.2480 102° East 497 572 38,000  Level FlightAware ADS-B
Mon 04:47:23 AM 40.2550 10.3480 101° East 497 572 38,000  Level FlightAware ADS-B
Mon 04:47:57 AM 40.2390 10.4540 101° East 497 572 38,000  Level FlightAware ADS-B
Mon 04:48:32 AM 40.2220 10.5610 102° East 499 574 38,000  Level FlightAware ADS-B
Mon 04:49:07 AM 40.2060 10.6610 102° East 499 574 38,000  Level FlightAware ADS-B
Mon 04:49:42 AM 40.1900 10.7640 101° East 499 574 38,000  Level FlightAware ADS-B
Mon 04:50:17 AM 40.1730 10.8680 102° East 499 574 38,000 -169 Level FlightAware ADS-B
Mon 04:50:53 AM 40.1570 10.9680 102° East 496 571 37,800 -845 Descending FlightAware ADS-B
Mon 04:51:28 AM 40.1400 11.0760 102° East 495 570 37,000 -696 Descending FlightAware ADS-B
Mon 04:52:02 AM 40.1250 11.1670 102° East 494 568 37,000  Level FlightAware ADS-B
Mon 04:52:37 AM 40.1070 11.2750 102° East 495 570 37,000  Level FlightAware ADS-B
Mon 04:53:12 AM 40.0900 11.3810 102° East 496 571 37,000  Level FlightAware ADS-B
Mon 04:53:47 AM 40.0730 11.4830 102° East 497 572 37,000  Level FlightAware ADS-B
Mon 04:54:25 AM 40.0540 11.5980 102° East 498 573 37,000  Level FlightAware ADS-B
Mon 04:55:01 AM 40.0370 11.7010 102° East 498 573 37,000  Level FlightAware ADS-B
Mon 04:55:34 AM 40.0210 11.7970 102° East 499 574 37,000  Level FlightAware ADS-B
Mon 04:56:09 AM 40.0030 11.9030 102° East 499 574 37,000  Level FlightAware ADS-B
Mon 04:56:46 AM 39.9850 12.0090 102° East 499 574 37,000  Level FlightAware ADS-B
Mon 04:57:18 AM 39.9690 12.1030 102° East 500 575 37,000  Level FlightAware ADS-B
Mon 04:57:55 AM 39.9500 12.2120 103° East 501 577 37,000  Level FlightAware ADS-B
Mon 04:58:27 AM 39.9340 12.3090 102° East 501 577 37,000  Level FlightAware ADS-B
Mon 04:59:03 AM 39.9150 12.4120 103° East 501 577 37,000  Level FlightAware ADS-B
Mon 04:59:41 AM 39.8960 12.5230 103° East 501 577 37,000  Level FlightAware ADS-B
Mon 05:00:13 AM 39.8800 12.6150 103° East 501 577 37,000  Level FlightAware ADS-B
Mon 05:00:49 AM 39.8600 12.7230 104° East 501 577 37,000  Level FlightAware ADS-B
Mon 05:01:21 AM 39.8450 12.8140 102° East 501 577 37,000  Level FlightAware ADS-B
Mon 05:02:05 AM 39.8210 12.9460 103° East 500 575 37,000  Level FlightAware ADS-B
Mon 05:02:41 AM 39.8010 13.0550 103° East 500 575 37,000  Level FlightAware ADS-B
Mon 05:03:17 AM 39.7830 13.1600 103° East 498 573 37,000  Level FlightAware ADS-B
Mon 05:03:50 AM 39.7650 13.2530 104° East 498 573 37,000  Level FlightAware ADS-B
Mon 05:04:24 AM 39.7470 13.3510 103° East 497 572 37,000  Level FlightAware ADS-B
Mon 05:05:02 AM 39.7270 13.4620 103° East 497 572 37,000  Level FlightAware ADS-B
Mon 05:05:34 AM 39.7090 13.5580 104° East 497 572 37,000  Level FlightAware ADS-B
Mon 05:06:12 AM 39.6890 13.6650 104° East 498 573 37,000  Level FlightAware ADS-B
Mon 05:06:44 AM 39.6720 13.7610 103° East 497 572 37,000  Level FlightAware ADS-B
Mon 05:07:20 AM 39.6520 13.8620 104° East 498 573 37,000  Level FlightAware ADS-B
Mon 05:07:56 AM 39.6330 13.9660 103° East 497 572 37,000  Level FlightAware ADS-B
Mon 05:08:32 AM 39.6130 14.0710 104° East 498 573 37,000  Level FlightAware ADS-B
Mon 05:09:04 AM 39.5950 14.1630 104° East 497 572 37,000  Level FlightAware ADS-B
Mon 05:09:40 AM 39.5750 14.2700 104° East 498 573 37,000  Level FlightAware ADS-B
Mon 05:10:14 AM 39.5560 14.3680 104° East 498 573 37,000  Level FlightAware ADS-B
Mon 05:10:52 AM 39.5360 14.4730 104° East 498 573 37,000  Level FlightAware ADS-B
Mon 05:11:33 AM 39.5120 14.5940 104° East 498 573 37,000  Level FlightAware ADS-B
Mon 05:12:09 AM 39.4920 14.6950 104° East 498 573 37,000  Level FlightAware ADS-B
Mon 05:12:42 AM 39.4730 14.7940 104° East 498 573 37,000  Level FlightAware ADS-B
Mon 05:13:18 AM 39.4520 14.9000 104° East 498 573 37,000  Level FlightAware ADS-B
Mon 05:13:55 AM 39.4310 15.0070 104° East 498 573 37,000  Level FlightAware ADS-B
Mon 05:14:26 AM 39.4140 15.0930 104° East 498 573 37,000  Level FlightAware ADS-B
Mon 05:15:02 AM 39.3920 15.2000 105° East 497 572 37,000  Level FlightAware ADS-B
Mon 05:15:38 AM 39.3720 15.3010 104° East 496 571 37,000  Level FlightAware ADS-B
Mon 05:16:14 AM 39.3510 15.4040 105° East 495 570 37,000  Level FlightAware ADS-B
Mon 05:16:53 AM 39.3290 15.5090 105° East 493 567 37,000  Level FlightAware ADS-B
Mon 05:17:31 AM 39.3060 15.6250 104° East 491 565 37,000  Level FlightAware ADS-B
Mon 05:18:03 AM 39.2880 15.7130 105° East 489 563 37,000  Level FlightAware ADS-B
Mon 05:18:39 AM 39.2660 15.8170 105° East 488 562 37,000  Level FlightAware ADS-B
Mon 05:19:15 AM 39.2450 15.9180 105° East 487 560 37,000  Level FlightAware ADS-B
Mon 05:19:51 AM 39.2240 16.0190 105° East 487 560 37,000  Level FlightAware ADS-B
Mon 05:20:23 AM 39.2050 16.1090 105° East 488 562 37,000  Level FlightAware ADS-B
Mon 05:21:01 AM 39.1830 16.2160 105° East 490 564 37,000  Level FlightAware ADS-B
Mon 05:21:36 AM 39.1630 16.3120 105° East 490 564 37,000  Level FlightAware ADS-B
Mon 05:22:17 AM 39.1360 16.4290 107° East 490 564 37,000  Level FlightAware ADS-B
Mon 05:22:53 AM 39.1130 16.5270 107° East 490 564 37,000  Level FlightAware ADS-B
Mon 05:23:29 AM 39.0900 16.6280 106° East 489 563 37,000  Level FlightAware ADS-B
Mon 05:24:01 AM 39.0700 16.7170 106° East 489 563 37,000  Level FlightAware ADS-B
Mon 05:24:35 AM 39.0480 16.8110 107° East 488 562 37,000  Level FlightAware ADS-B
Mon 05:25:13 AM 39.0230 16.9200 106° East 489 563 37,000  Level FlightAware ADS-B
Mon 05:25:47 AM 39.0010 17.0150 107° East 489 563 37,000  Level FlightAware ADS-B
Mon 05:26:21 AM 38.9790 17.1090 107° East 488 562 37,000  Level FlightAware ADS-B
Mon 05:26:57 AM 38.9560 17.2060 107° East 488 562 37,000  Level FlightAware ADS-B
Mon 05:27:33 AM 38.9320 17.3060 107° East 488 562 37,000  Level FlightAware ADS-B
Mon 05:28:06 AM 38.9110 17.3980 106° East 489 563 37,000  Level FlightAware ADS-B
Mon 05:28:42 AM 38.8870 17.4970 107° East 487 560 37,000  Level FlightAware ADS-B
Mon 05:29:16 AM 38.8640 17.5940 107° East 485 558 37,000  Level FlightAware ADS-B
Mon 05:29:54 AM 38.8390 17.6980 107° East 486 559 37,000  Level FlightAware ADS-B
Mon 05:30:26 AM 38.8180 17.7870 107° East 486 559 37,000  Level FlightAware ADS-B
Mon 05:31:02 AM 38.7940 17.8860 107° East 486 559 37,000  Level FlightAware ADS-B
Mon 05:31:38 AM 38.7710 17.9820 107° East 486 559 37,000  Level FlightAware ADS-B
Mon 05:32:14 AM 38.7460 18.0840 107° East 486 559 37,000  Level FlightAware ADS-B
Mon 05:32:46 AM 38.7250 18.1720 107° East 488 562 37,000  Level FlightAware ADS-B
Mon 05:33:21 AM 38.7020 18.2650 108° East 488 562 37,000  Level FlightAware ADS-B
Mon 05:33:58 AM 38.6760 18.3670 108° East 488 562 37,000  Level FlightAware ADS-B
Mon 05:34:32 AM 38.6530 18.4640 107° East 488 562 37,000  Level FlightAware ADS-B
Mon 05:35:06 AM 38.6290 18.5570 108° East 488 562 37,000  Level FlightAware ADS-B
Mon 05:35:42 AM 38.6050 18.6540 108° East 487 560 37,000  Level FlightAware ADS-B
Mon 05:36:18 AM 38.5810 18.7520 107° East 488 562 37,000  Level FlightAware ADS-B
Mon 05:36:52 AM 38.5570 18.8460 108° East 490 564 37,000  Level FlightAware ADS-B
Mon 05:37:35 AM 38.5250 18.9600 110° East 491 565 37,000  Level FlightAware ADS-B
Mon 05:38:11 AM 38.4960 19.0550 111° Southeast 491 565 37,000  Level FlightAware ADS-B
Mon 05:38:41 AM 38.4710 19.1360 111° Southeast 492 566 37,000  Level FlightAware ADS-B
Mon 05:39:19 AM 38.4400 19.2420 110° East 490 564 37,000  Level FlightAware ADS-B
Mon 05:39:55 AM 38.4110 19.3400 111° Southeast 489 563 37,000  Level FlightAware ADS-B
Mon 05:40:30 AM 38.3830 19.4350 111° Southeast 489 563 37,000  Level FlightAware ADS-B
Mon 05:41:12 AM 38.3500 19.5460 111° Southeast 490 564 37,000  Level FlightAware ADS-B
Mon 05:41:49 AM 38.3180 19.6520 111° Southeast 493 567 37,000  Level FlightAware ADS-B
Mon 05:42:20 AM 38.2940 19.7330 111° Southeast 493 567 37,000  Level FlightAware ADS-B
Mon 05:42:54 AM 38.2650 19.8270 111° Southeast 493 567 37,000  Level FlightAware ADS-B
Mon 05:43:30 AM 38.2360 19.9220 111° Southeast 495 570 37,000  Level FlightAware ADS-B
Mon 05:44:04 AM 38.2070 20.0170 111° Southeast 495 570 37,000  Level FlightAware ADS-B
Mon 05:44:40 AM 38.1780 20.1120 111° Southeast 496 571 37,000  Level FlightAware ADS-B
Mon 05:45:10 AM 38.1530 20.1930 111° Southeast 496 571 37,000  Level FlightAware ADS-B
Mon 05:45:50 AM 38.1200 20.3020 111° Southeast 497 572 37,000  Level FlightAware ADS-B
Mon 05:46:25 AM 38.0900 20.3970 112° Southeast 498 573 37,000  Level FlightAware ADS-B
Mon 05:47:00 AM 38.0610 20.4920 111° Southeast 498 573 37,000  Level FlightAware ADS-B
Mon 05:47:35 AM 38.0310 20.5910 111° Southeast 496 571 37,000  Level FlightAware ADS-B
Mon 05:48:06 AM 38.0050 20.6720 112° Southeast 498 573 37,000  Level FlightAware ADS-B
Mon 05:48:51 AM 37.9660 20.7980 111° Southeast 498 573 37,000  Level FlightAware ADS-B
Mon 05:49:26 AM 37.9360 20.8900 112° Southeast 498 573 37,000  Level FlightAware ADS-B
Mon 05:50:05 AM 37.9020 20.9990 112° Southeast 498 573 37,000  Level FlightAware ADS-B
Mon 05:50:41 AM 37.8720 21.0940 112° Southeast 498 573 37,000  Level FlightAware ADS-B
Mon 05:51:11 AM 37.8480 21.1680 112° Southeast 498 573 37,000  Level FlightAware ADS-B
Mon 05:51:44 AM 37.8170 21.2660 112° Southeast 502 578 37,000  Level FlightAware ADS-B
Mon 05:52:24 AM 37.7810 21.3800 112° Southeast 502 578 37,000  Level FlightAware ADS-B
Mon 05:52:56 AM 37.7530 21.4640 113° Southeast 502 578 37,000  Level FlightAware ADS-B
Mon 05:53:33 AM 37.7210 21.5650 112° Southeast 502 578 37,000  Level FlightAware ADS-B
Mon 05:54:10 AM 37.6900 21.6620 112° Southeast 503 579 37,000  Level FlightAware ADS-B
Mon 05:54:45 AM 37.6580 21.7600 112° Southeast 503 579 37,000  Level FlightAware ADS-B
Mon 05:55:16 AM 37.6310 21.8420 113° Southeast 503 579 37,000  Level FlightAware ADS-B
Mon 05:55:52 AM 37.5980 21.9450 112° Southeast 504 580 37,000  Level FlightAware ADS-B
Mon 05:56:29 AM 37.5660 22.0430 112° Southeast 504 580 37,000  Level FlightAware ADS-B
Mon 05:57:06 AM 37.5320 22.1460 113° Southeast 504 580 37,000  Level FlightAware ADS-B
Mon 05:57:37 AM 37.5050 22.2270 113° Southeast 505 581 37,000  Level FlightAware ADS-B
Mon 05:58:14 AM 37.4720 22.3280 112° Southeast 504 580 37,000  Level FlightAware ADS-B
Mon 05:58:46 AM 37.4430 22.4140 113° Southeast 504 580 37,000  Level FlightAware ADS-B
Mon 05:59:23 AM 37.4100 22.5140 113° Southeast 504 580 37,000  Level FlightAware ADS-B
Mon 06:00:00 AM 37.3760 22.6170 113° Southeast 504 580 37,000  Level FlightAware ADS-B
Mon 06:00:35 AM 37.3450 22.7090 113° Southeast 503 579 37,000  Level FlightAware ADS-B
Mon 06:01:08 AM 37.3150 22.7970 113° Southeast 503 579 37,000  Level FlightAware ADS-B
Mon 06:01:44 AM 37.2820 22.8940 113° Southeast 503 579 37,000  Level FlightAware ADS-B
Mon 06:02:17 AM 37.2520 22.9860 112° Southeast 503 579 37,000  Level FlightAware ADS-B
Mon 06:02:53 AM 37.2190 23.0820 113° Southeast 504 580 37,000  Level FlightAware ADS-B
Mon 06:03:28 AM 37.1880 23.1740 113° Southeast 504 580 37,000  Level FlightAware ADS-B
Mon 06:04:05 AM 37.1530 23.2730 114° Southeast 505 581 37,000  Level FlightAware ADS-B
Mon 06:04:39 AM 37.1210 23.3670 113° Southeast 505 581 37,000  Level FlightAware ADS-B
Mon 06:05:13 AM 37.0910 23.4560 113° Southeast 507 583 37,000  Level FlightAware ADS-B
Mon 06:05:49 AM 37.0570 23.5530 114° Southeast 507 583 37,000  Level FlightAware ADS-B
Mon 06:06:26 AM 37.0220 23.6530 114° Southeast 508 585 37,000  Level FlightAware ADS-B
Mon 06:06:58 AM 36.9920 23.7420 113° Southeast 509 586 37,000  Level FlightAware ADS-B
Mon 06:07:34 AM 36.9590 23.8360 114° Southeast 510 587 37,000  Level FlightAware ADS-B
Mon 06:08:09 AM 36.9250 23.9310 114° Southeast 510 587 37,000  Level FlightAware ADS-B
Mon 06:08:43 AM 36.8940 24.0200 114° Southeast 509 586 37,000  Level FlightAware ADS-B
Mon 06:09:19 AM 36.8590 24.1190 114° Southeast 510 587 37,000  Level FlightAware ADS-B
Mon 06:09:56 AM 36.8240 24.2190 114° Southeast 510 587 37,000  Level FlightAware ADS-B
Mon 06:10:27 AM 36.7950 24.3030 113° Southeast 511 588 37,000  Level FlightAware ADS-B
Mon 06:11:05 AM 36.7580 24.4080 114° Southeast 511 588 37,000  Level FlightAware ADS-B
Mon 06:11:38 AM 36.7360 24.4700 114° Southeast 512 589 37,000  Level FlightAware ADS-B
Mon 06:12:14 AM 36.6920 24.5940 114° Southeast 513 590 37,000  Level FlightAware ADS-B
Mon 06:12:48 AM 36.6590 24.6860 114° Southeast 514 592 37,000  Level FlightAware ADS-B
Mon 06:13:24 AM 36.6240 24.7830 114° Southeast 515 593 37,000  Level FlightAware ADS-B
Mon 06:14:01 AM 36.5880 24.8810 115° Southeast 516 594 37,000  Level FlightAware ADS-B
Mon 06:14:32 AM 36.5580 24.9650 114° Southeast 516 594 37,000  Level FlightAware ADS-B
Mon 06:15:06 AM 36.5240 25.0590 114° Southeast 516 594 37,000  Level FlightAware ADS-B
Mon 06:15:42 AM 36.4880 25.1570 115° Southeast 517 595 37,000  Level FlightAware ADS-B
Mon 06:16:18 AM 36.4530 25.2540 114° Southeast 516 594 37,000 417 Level FlightAware ADS-B
Mon 06:16:54 AM 36.4180 25.3480 115° Southeast 517 595 37,500 1,068 Climbing FlightAware ADS-B
Mon 06:17:31 AM 36.3820 25.4480 114° Southeast 516 594 38,300 1,286 Climbing FlightAware ADS-B
Mon 06:18:04 AM 36.3480 25.5390 115° Southeast 512 589 39,000 609 Climbing FlightAware ADS-B
Mon 06:18:40 AM 36.3140 25.6330 114° Southeast 513 590 39,000  Level FlightAware ADS-B
Mon 06:19:10 AM 36.2840 25.7130 115° Southeast 512 589 39,000  Level FlightAware ADS-B
Mon 06:19:48 AM 36.2460 25.8140 115° Southeast 511 588 39,000  Level FlightAware ADS-B
Mon 06:20:24 AM 36.2100 25.9120 114° Southeast 509 586 39,000  Level FlightAware ADS-B
Mon 06:21:00 AM 36.1750 26.0050 115° Southeast 508 585 39,000  Level FlightAware ADS-B
Mon 06:21:32 AM 36.1430 26.0890 115° Southeast 508 585 39,000  Level FlightAware ADS-B
Mon 06:22:10 AM 36.1050 26.1920 115° Southeast 507 583 39,000  Level FlightAware ADS-B
Mon 06:22:46 AM 36.0700 26.2840 115° Southeast 507 583 39,000  Level FlightAware ADS-B
Mon 06:23:18 AM 36.0380 26.3710 114° Southeast 507 583 39,000  Level FlightAware ADS-B
Mon 06:23:54 AM 36.0020 26.4650 115° Southeast 506 582 39,000  Level FlightAware ADS-B
Mon 06:24:29 AM 35.9670 26.5540 116° Southeast 506 582 39,000  Level FlightAware ADS-B
Mon 06:25:03 AM 35.9330 26.6430 115° Southeast 507 583 39,000  Level FlightAware ADS-B
Mon 06:25:39 AM 35.8980 26.7370 115° Southeast 508 585 39,000  Level FlightAware ADS-B
Mon 06:26:14 AM 35.8630 26.8290 115° Southeast 508 585 39,000  Level FlightAware ADS-B
Mon 06:26:52 AM 35.8280 26.9180 116° Southeast 509 586 39,000  Level FlightAware ADS-B
Mon 06:27:28 AM 35.7980 26.9980 115° Southeast 509 586 39,000  Level FlightAware ADS-B
Mon 06:28:06 AM 35.7490 27.1220 116° Southeast 510 587 39,000  Level FlightAware ADS-B
Mon 06:28:38 AM 35.7160 27.2090 115° Southeast 511 588 39,000  Level FlightAware ADS-B
Mon 06:29:14 AM 35.6790 27.3030 116° Southeast 513 590 39,000  Level FlightAware ADS-B
Mon 06:29:52 AM 35.6400 27.4030 116° Southeast 514 592 39,000  Level FlightAware ADS-B
Mon 06:30:28 AM 35.6030 27.4950 116° Southeast 514 592 39,000  Level FlightAware ADS-B
Mon 06:31:00 AM 35.5700 27.5820 115° Southeast 513 590 39,000  Level FlightAware ADS-B
Mon 06:31:36 AM 35.5330 27.6740 116° Southeast 514 592 39,000  Level FlightAware ADS-B
Mon 06:32:12 AM 35.4960 27.7710 115° Southeast 515 593 39,000  Level FlightAware ADS-B
Mon 06:32:42 AM 35.4650 27.8470 117° Southeast 515 593 39,000  Level FlightAware ADS-B
Mon 06:33:20 AM 35.4240 27.9500 116° Southeast 517 595 39,000  Level FlightAware ADS-B
Mon 06:33:56 AM 35.3880 28.0420 116° Southeast 518 596 39,000  Level FlightAware ADS-B
Mon 06:34:29 AM 35.3530 28.1290 116° Southeast 519 597 39,000  Level FlightAware ADS-B
Mon 06:35:02 AM 35.3180 28.2160 116° Southeast 519 597 39,000  Level FlightAware ADS-B
Mon 06:35:39 AM 35.2850 28.2990 116° Southeast 519 597 39,000  Level FlightAware ADS-B
Mon 06:36:18 AM 35.2390 28.4120 116° Southeast 522 601 39,000  Level FlightAware ADS-B
Mon 06:36:50 AM 35.2030 28.5020 116° Southeast 523 602 39,000  Level FlightAware ADS-B
Mon 06:37:26 AM 35.1640 28.5980 116° Southeast 523 602 39,000  Level FlightAware ADS-B
Mon 06:37:55 AM 35.1390 28.6610 116° Southeast 518 596 39,000  Level FlightAware ADS-B
Mon 06:38:35 AM 35.0910 28.7770 117° Southeast 518 596 39,000  Level FlightAware ADS-B
Mon 06:39:25 AM 35.0390 28.9060 116° Southeast 517 595 39,000  Level FlightAware ADS-B
Mon 06:40:07 AM 34.9910 29.0220 117° Southeast 521 600 39,000  Level FlightAware ADS-B
Mon 06:40:40 AM 34.9550 29.1080 117° Southeast 521 600 39,000  Level FlightAware ADS-B
Mon 06:41:14 AM 34.9190 29.1980 116° Southeast 521 600 39,000  Level FlightAware ADS-B
Mon 06:42:10 AM 34.8590 29.3420 117° Southeast 433 498 39,000  Level FlightAware ADS-B
Mon 06:42:48 AM 34.8170 29.4440 117° Southeast 520 598 39,000  Level FlightAware ADS-B
Mon 06:43:22 AM 34.7810 29.5300 117° Southeast 521 600 39,000  Level FlightAware ADS-B
Mon 06:43:56 AM 34.7470 29.6110 117° Southeast 517 595 39,000  Level FlightAware ADS-B
Mon 06:44:32 AM 34.7050 29.7100 117° Southeast 517 595 39,000  Level FlightAware ADS-B
Mon 06:45:02 AM 34.6720 29.7880 117° Southeast 517 595 39,000  Level FlightAware ADS-B
Mon 06:45:53 AM 34.6240 29.9060 116° Southeast 518 596 39,000  Level FlightAware ADS-B
Mon 06:46:29 AM 34.5920 29.9860 116° Southeast 518 596 39,000  Level FlightAware ADS-B
Mon 06:46:48 AM 34.5550 30.0610 121° Southeast 39,000  Level FlightAware ADS-B
Mon 06:47:13 AM 34.5250 30.1240 120° Southeast 520 598 39,000  Level FlightAware ADS-B
Mon 06:47:55 AM 34.4790 30.2200 120° Southeast 520 598 39,000  Level FlightAware ADS-B
Mon 06:48:29 AM 34.4310 30.3230 119° Southeast 521 600 39,000  Level FlightAware ADS-B
Mon 06:49:04 AM 34.3890 30.4090 121° Southeast 520 598 39,000  Level FlightAware ADS-B
Mon 06:49:39 AM 34.3470 30.4960 120° Southeast 519 597 39,000  Level FlightAware ADS-B
Mon 06:50:14 AM 34.3020 30.5890 120° Southeast 519 597 39,000  Level FlightAware ADS-B
Mon 06:50:49 AM 34.2610 30.6720 121° Southeast 519 597 39,000  Level FlightAware ADS-B
Mon 06:51:25 AM 34.2180 30.7620 120° Southeast 519 597 39,000  Level FlightAware ADS-B
Mon 06:52:00 AM 34.1740 30.8520 121° Southeast 518 596 39,000  Level FlightAware ADS-B
Mon 06:52:34 AM 34.1330 30.9370 120° Southeast 514 592 39,000  Level FlightAware ADS-B
Mon 06:53:10 AM 34.0900 31.0240 121° Southeast 515 593 39,000  Level FlightAware ADS-B
Mon 06:53:45 AM 34.0460 31.1140 121° Southeast 516 594 39,000  Level FlightAware ADS-B
Mon 06:54:20 AM 34.0030 31.2010 121° Southeast 516 594 39,000  Level FlightAware ADS-B
Mon 06:54:56 AM 33.9600 31.2880 121° Southeast 516 594 39,000  Level FlightAware ADS-B
Mon 06:55:30 AM 33.9210 31.3680 120° Southeast 516 594 39,000  Level FlightAware ADS-B
Mon 06:56:05 AM 33.8740 31.4630 121° Southeast 517 595 39,000  Level FlightAware ADS-B
Mon 06:56:40 AM 33.8320 31.5470 121° Southeast 518 596 39,000  Level FlightAware ADS-B
Mon 06:57:15 AM 33.7870 31.6370 121° Southeast 518 596 39,000  Level FlightAware ADS-B
Mon 06:57:56 AM 33.7370 31.7390 120° Southeast 519 597 39,000  Level FlightAware ADS-B
Mon 06:58:31 AM 33.6920 31.8270 122° Southeast 520 598 39,000  Level FlightAware ADS-B
Mon 06:59:07 AM 33.6480 31.9140 121° Southeast 520 598 39,000  Level FlightAware ADS-B
Mon 06:59:48 AM 33.5950 32.0210 121° Southeast 519 597 39,000  Level FlightAware ADS-B
Mon 07:00:31 AM 33.5410 32.1280 121° Southeast 524 603 39,000  Level FlightAware ADS-B
Mon 07:01:04 AM 33.5020 32.2040 122° Southeast 524 603 39,000  Level FlightAware ADS-B
Mon 07:01:39 AM 33.4560 32.2940 121° Southeast 524 603 39,000  Level FlightAware ADS-B
Mon 07:02:18 AM 33.4070 32.3910 121° Southeast 524 603 39,000  Level FlightAware ADS-B
Mon 07:02:59 AM 33.3580 32.4870 121° Southeast 524 603 39,000  Level FlightAware ADS-B
Mon 07:03:34 AM 33.3150 32.5710 121° Southeast 525 604 39,000 -273 Level FlightAware ADS-B
Mon 07:04:05 AM 33.2770 32.6450 122° Southeast 522 601 38,700 -857 Descending FlightAware ADS-B
Mon 07:04:44 AM 33.2270 32.7440 121° Southeast 522 601 38,000 -730 Descending FlightAware ADS-B
Mon 07:05:19 AM 33.1870 32.8220 121° Southeast 522 601 37,800 -1,754 Descending FlightAware ADS-B
Mon 07:05:49 AM 33.1430 32.9080 121° Southeast 522 601 36,100 -3,514 Descending FlightAware ADS-B
Mon 07:06:29 AM 33.0910 33.0090 122° Southeast 526 605 33,700 -2,960 Descending FlightAware ADS-B
Mon 07:07:04 AM 33.0480 33.0900 122° Southeast 520 598 32,400 -2,143 Descending FlightAware ADS-B
Mon 07:07:39 AM 33.0090 33.1670 121° Southeast 510 587 31,200 -2,559 Descending FlightAware ADS-B
Mon 07:08:12 AM 32.9650 33.2510 122° Southeast 492 566 29,500 -3,043 Descending FlightAware ADS-B
Mon 07:08:48 AM 32.9200 33.3370 122° Southeast 474 545 27,700 -3,324 Descending FlightAware ADS-B
Mon 07:09:26 AM 32.8760 33.4190 123° Southeast 481 554 25,400 -3,288 Descending FlightAware ADS-B
Mon 07:10:01 AM 32.8330 33.4980 123° Southeast 472 543 23,700 -2,818 Descending FlightAware ADS-B
Mon 07:10:32 AM 32.7970 33.5650 123° Southeast 461 531 22,300 -2,438 Descending FlightAware ADS-B
Mon 07:11:05 AM 32.7590 33.6340 123° Southeast 451 519 21,100 -2,250 Descending FlightAware ADS-B
Mon 07:11:52 AM 32.7100 33.7330 120° Southeast 434 499 19,300 -2,488 Descending FlightAware ADS-B
Mon 07:12:27 AM 32.6740 33.8060 120° Southeast 424 488 17,700 -2,609 Descending FlightAware ADS-B
Mon 07:13:01 AM 32.6390 33.8720 122° Southeast 416 479 16,300 -2,435 Descending FlightAware ADS-B
Mon 07:13:36 AM 32.6050 33.9350 123° Southeast 407 468 14,900 -2,471 Descending FlightAware ADS-B
Mon 07:14:09 AM 32.5700 34.0000 123° Southeast 400 460 13,500 -2,417 Descending FlightAware ADS-B
Mon 07:14:48 AM 32.5330 34.0700 122° Southeast 393 452 12,000 -2,294 Descending FlightAware ADS-B
Mon 07:15:17 AM 32.4990 34.1170 131° Southeast 385 443 10,900 -2,250 Descending FlightAware ADS-B
Mon 07:15:28 AM 32.4820 34.1290 149° Southeast 381 438 10,500 -2,400 Descending FlightAware ADS-B
Mon 07:15:47 AM 32.4490 34.1430 160° South 376 433 9,700 -2,108 Descending FlightAware ADS-B
Mon 07:16:05 AM 32.4190 34.1500 169° South 373 429 9,200 -1,579 Descending FlightAware ADS-B
Mon 07:16:25 AM 32.3850 34.1570 170° South 360 414 8,700 -1,231 Descending FlightAware ADS-B
Mon 07:16:44 AM 32.3560 34.1630 170° South 350 403 8,400 -1,059 Descending FlightAware ADS-B
Mon 07:16:59 AM 32.3310 34.1680 170° South 343 395 8,100 -1,273 Descending FlightAware ADS-B
Mon 07:17:17 AM 32.3030 34.1740 170° South 331 381 7,700 -1,024 Descending FlightAware ADS-B
Mon 07:17:40 AM 32.2710 34.1810 170° South 319 367 7,400 -750 Descending FlightAware ADS-B
Mon 07:18:05 AM 32.2380 34.1880 170° South 308 354 7,100 -933 Descending FlightAware ADS-B
Mon 07:18:25 AM 32.2090 34.1940 170° South 298 343 6,700 -1,000 Descending FlightAware ADS-B
Mon 07:18:41 AM 32.1900 34.1990 167° South 294 338 6,500 -789 Descending FlightAware ADS-B
Mon 07:19:03 AM 32.1640 34.2040 171° South 283 326 6,200 -837 Descending FlightAware ADS-B
Mon 07:19:24 AM 32.1330 34.2110 169° South 270 311 5,900 -973 Descending FlightAware ADS-B
Mon 07:19:40 AM 32.1160 34.2230 149° Southeast 262 302 5,600 -1,154 Descending FlightAware ADS-B
Mon 07:19:50 AM 32.1080 34.2320 136° Southeast 259 298 5,400 -1,200 Descending FlightAware ADS-B
Mon 07:20:00 AM 32.1020 34.2440 121° Southeast 256 295 5,200 -900 Descending FlightAware ADS-B
Mon 07:20:10 AM 32.0980 34.2570 110° East 254 292 5,100 -1,200 Descending FlightAware ADS-B
Mon 07:20:30 AM 32.0920 34.2820 106° East 252 290 4,600 -1,463 Descending FlightAware ADS-B
Mon 07:20:51 AM 32.0860 34.3100 104° East 251 289 4,100 -1,404 Descending FlightAware ADS-B
Mon 07:21:17 AM 32.0780 34.3410 107° East 249 287 3,500 -1,294 Descending FlightAware ADS-B
Mon 07:21:42 AM 32.0700 34.3750 106° East 251 289 3,000 -720 Descending FlightAware ADS-B
Mon 07:22:07 AM 32.0610 34.4120 106° East 250 288 2,900 -107 Descending FlightAware ADS-B
Mon 07:22:38 AM 32.0520 34.4510 105° East 246 283 2,900 105 Level FlightAware ADS-B
Mon 07:23:04 AM 32.0430 34.4840 108° East 247 284 3,000  Climbing FlightAware ADS-B
Mon 07:23:24 AM 32.0370 34.5100 105° East 244 281 2,900 -146 Descending FlightAware ADS-B
Mon 07:23:45 AM 32.0310 34.5360 105° East 243 280 2,900  Level FlightAware ADS-B
Mon 07:24:04 AM 32.0250 34.5630 105° East 245 282 2,900  Level FlightAware ADS-B
Mon 07:24:24 AM 32.0190 34.5870 106° East 243 280 2,900  Level FlightAware ADS-B
Mon 07:24:44 AM 32.0130 34.6100 107° East 243 280 2,900 133 Level FlightAware ADS-B
Mon 07:25:09 AM 32.0090 34.6420 98° East 244 281 3,000 133 Climbing FlightAware ADS-B
Mon 07:25:29 AM 32.0100 34.6700 88° East 243 280 3,000  Level FlightAware ADS-B
Mon 07:25:49 AM 32.0100 34.6920 90° East 219 252 3,000 -558 Level FlightAware ADS-B
Mon 07:26:12 AM 32.0110 34.7180 87° East 180 207 2,600 -933 Descending FlightAware ADS-B
Mon 07:26:34 AM 32.0110 34.7350 90° East 165 190 2,300 -923 Descending FlightAware ADS-B
Mon 07:26:51 AM 32.0120 34.7500 86° East 153 176 2,000 -1,091 Descending FlightAware ADS-B
Mon 07:27:29 AM 32.0120 34.7820 90° East 153 176 1,300 -915 Descending FlightAware ADS-B
Mon 07:27:50 AM 32.0120 34.7680 270° West 147 169 1,100 -615 Descending FlightAware ADS-B
Mon 07:28:08 AM 32.0090 34.8120 95° East 152 175 900 -720 Descending FlightAware ADS-B
Mon 07:28:40 AM 32.0100 34.8390 87° East 154 177 500 -448 Descending FlightAware ADS-B
Mon 07:29:15 AM 32.0130 34.8630 82° East 152 175 400 -171 Descending FlightAware ADS-B

Login

Don't have an account? Register now (free) for customized features, flight alerts, and more!